﻿<?xml version="1.0" encoding="utf-8"?><gpx creator="Garmin Desktop App" version="1.1" xsi:schemaLocation="http://www.topografix.com/GPX/1/1 http://www.topografix.com/GPX/1/1/gpx.xsd http://www.garmin.com/xmlschemas/WaypointExtension/v1 http://www8.garmin.com/xmlschemas/WaypointExtensionv1.xsd http://www.garmin.com/xmlschemas/TrackPointExtension/v1 http://www.garmin.com/xmlschemas/TrackPointExtensionv1.xsd http://www.garmin.com/xmlschemas/GpxExtensions/v3 http://www8.garmin.com/xmlschemas/GpxExtensionsv3.xsd http://www.garmin.com/xmlschemas/ActivityExtension/v1 http://www8.garmin.com/xmlschemas/ActivityExtensionv1.xsd http://www.garmin.com/xmlschemas/AdventuresExtensions/v1 http://www8.garmin.com/xmlschemas/AdventuresExtensionv1.xsd http://www.garmin.com/xmlschemas/PressureExtension/v1 http://www.garmin.com/xmlschemas/PressureExtensionv1.xsd http://www.garmin.com/xmlschemas/TripExtensions/v1 http://www.garmin.com/xmlschemas/TripExtensionsv1.xsd http://www.garmin.com/xmlschemas/TripMetaDataExtensions/v1 http://www.garmin.com/xmlschemas/TripMetaDataExtensionsv1.xsd http://www.garmin.com/xmlschemas/ViaPointTransportationModeExtensions/v1 http://www.garmin.com/xmlschemas/ViaPointTransportationModeExtensionsv1.xsd http://www.garmin.com/xmlschemas/CreationTimeExtension/v1 http://www.garmin.com/xmlschemas/CreationTimeExtensionsv1.xsd http://www.garmin.com/xmlschemas/AccelerationExtension/v1 http://www.garmin.com/xmlschemas/AccelerationExtensionv1.xsd http://www.garmin.com/xmlschemas/PowerExtension/v1 http://www.garmin.com/xmlschemas/PowerExtensionv1.xsd http://www.garmin.com/xmlschemas/VideoExtension/v1 http://www.garmin.com/xmlschemas/VideoExtensionv1.xsd" xmlns="http://www.topografix.com/GPX/1/1" xmlns:xsi="http://www.w3.org/2001/XMLSchema-instance" xmlns:wptx1="http://www.garmin.com/xmlschemas/WaypointExtension/v1" xmlns:gpxtrx="http://www.garmin.com/xmlschemas/GpxExtensions/v3" xmlns:gpxtpx="http://www.garmin.com/xmlschemas/TrackPointExtension/v1" xmlns:gpxx="http://www.garmin.com/xmlschemas/GpxExtensions/v3" xmlns:trp="http://www.garmin.com/xmlschemas/TripExtensions/v1" xmlns:adv="http://www.garmin.com/xmlschemas/AdventuresExtensions/v1" xmlns:prs="http://www.garmin.com/xmlschemas/PressureExtension/v1" xmlns:tmd="http://www.garmin.com/xmlschemas/TripMetaDataExtensions/v1" xmlns:vptm="http://www.garmin.com/xmlschemas/ViaPointTransportationModeExtensions/v1" xmlns:ctx="http://www.garmin.com/xmlschemas/CreationTimeExtension/v1" xmlns:gpxacc="http://www.garmin.com/xmlschemas/AccelerationExtension/v1" xmlns:gpxpx="http://www.garmin.com/xmlschemas/PowerExtension/v1" xmlns:vidx1="http://www.garmin.com/xmlschemas/VideoExtension/v1">

  <metadata>
    <link href="http://www.garmin.com">
      <text>Garmin International</text>
    </link>
    <time>2014-05-31T16:18:31Z</time>
    <bounds maxlat="46.895900247618556" maxlon="15.920436177402735" minlat="46.876566298305988" minlon="15.899054361507297" />
  </metadata>

  <trk>
    <name>Waldlehrpfad Bad Gleichenberg</name>
    <extensions>
      <gpxx:TrackExtension>
        <gpxx:DisplayColor>DarkBlue</gpxx:DisplayColor>
      </gpxx:TrackExtension>
    </extensions>
    <trkseg>
      <trkpt lat="46.876632766798139" lon="15.908978451043367">
        <ele>308.2398681640625</ele>
        <time>2010-03-28T09:46:33Z</time>
      </trkpt>
      <trkpt lat="46.876594042405486" lon="15.908921286463737">
        <ele>311.123779296875</ele>
        <time>2010-03-28T09:46:58Z</time>
      </trkpt>
      <trkpt lat="46.876577446237206" lon="15.908928830176592">
        <ele>312.085205078125</ele>
        <time>2010-03-28T09:47:02Z</time>
      </trkpt>
      <trkpt lat="46.876566298305988" lon="15.908936960622668">
        <ele>315.4498291015625</ele>
        <time>2010-03-28T09:47:11Z</time>
      </trkpt>
      <trkpt lat="46.87658934853971" lon="15.908930171281099">
        <ele>318.3336181640625</ele>
        <time>2010-03-28T09:47:18Z</time>
      </trkpt>
      <trkpt lat="46.876607788726687" lon="15.9090147446841">
        <ele>320.737060546875</ele>
        <time>2010-03-28T09:47:24Z</time>
      </trkpt>
      <trkpt lat="46.876658331602812" lon="15.909038716927171">
        <ele>323.140380859375</ele>
        <time>2010-03-28T09:47:33Z</time>
      </trkpt>
      <trkpt lat="46.87668171711266" lon="15.908977696672082">
        <ele>319.775634765625</ele>
        <time>2010-03-28T09:47:46Z</time>
      </trkpt>
      <trkpt lat="46.876673586666584" lon="15.908966045826674">
        <ele>316.4110107421875</ele>
        <time>2010-03-28T09:47:59Z</time>
      </trkpt>
      <trkpt lat="46.876673083752394" lon="15.908965542912483">
        <ele>316.4110107421875</ele>
        <time>2010-03-28T09:48:00Z</time>
      </trkpt>
      <trkpt lat="46.876664869487286" lon="15.908960429951549">
        <ele>313.5272216796875</ele>
        <time>2010-03-28T09:48:14Z</time>
      </trkpt>
      <trkpt lat="46.876661768183112" lon="15.908957244828343">
        <ele>309.681884765625</ele>
        <time>2010-03-28T09:48:21Z</time>
      </trkpt>
      <trkpt lat="46.876659672707319" lon="15.908951545134187">
        <ele>304.875244140625</ele>
        <time>2010-03-28T09:48:29Z</time>
      </trkpt>
      <trkpt lat="46.876669898629189" lon="15.908952131867409">
        <ele>304.875244140625</ele>
        <time>2010-03-28T09:48:30Z</time>
      </trkpt>
      <trkpt lat="46.876680376008153" lon="15.908954394981265">
        <ele>311.123779296875</ele>
        <time>2010-03-28T09:48:32Z</time>
      </trkpt>
      <trkpt lat="46.876679789274931" lon="15.908953472971916">
        <ele>311.123779296875</ele>
        <time>2010-03-28T09:48:33Z</time>
      </trkpt>
      <trkpt lat="46.87667484395206" lon="15.908952383324504">
        <ele>307.75927734375</ele>
        <time>2010-03-28T09:48:35Z</time>
      </trkpt>
      <trkpt lat="46.876672245562077" lon="15.908951377496123">
        <ele>306.7978515625</ele>
        <time>2010-03-28T09:48:37Z</time>
      </trkpt>
      <trkpt lat="46.876697978004813" lon="15.908940816298127">
        <ele>301.9913330078125</ele>
        <time>2010-03-28T09:49:27Z</time>
      </trkpt>
      <trkpt lat="46.876702755689621" lon="15.908942157402635">
        <ele>306.3172607421875</ele>
        <time>2010-03-28T09:49:29Z</time>
      </trkpt>
      <trkpt lat="46.876692194491625" lon="15.908948192372918">
        <ele>306.3172607421875</ele>
        <time>2010-03-28T09:50:15Z</time>
      </trkpt>
      <trkpt lat="46.876692278310657" lon="15.908894632011652">
        <ele>307.75927734375</ele>
        <time>2010-03-28T09:50:42Z</time>
      </trkpt>
      <trkpt lat="46.876764530315995" lon="15.90888331644237">
        <ele>307.278564453125</ele>
        <time>2010-03-28T09:51:01Z</time>
      </trkpt>
      <trkpt lat="46.876757573336363" lon="15.908895554021001">
        <ele>306.7978515625</ele>
        <time>2010-03-28T09:51:16Z</time>
      </trkpt>
      <trkpt lat="46.876739636063576" lon="15.908938553184271">
        <ele>306.3172607421875</ele>
        <time>2010-03-28T09:51:36Z</time>
      </trkpt>
      <trkpt lat="46.876791436225176" lon="15.908842161297798">
        <ele>307.278564453125</ele>
        <time>2010-03-28T09:51:50Z</time>
      </trkpt>
      <trkpt lat="46.876829238608479" lon="15.908817769959569">
        <ele>308.2398681640625</ele>
        <time>2010-03-28T09:51:54Z</time>
      </trkpt>
      <trkpt lat="46.877051359042525" lon="15.908936038613319">
        <ele>312.085205078125</ele>
        <time>2010-03-28T09:52:14Z</time>
      </trkpt>
      <trkpt lat="46.877079857513309" lon="15.908960178494453">
        <ele>309.201171875</ele>
        <time>2010-03-28T09:52:17Z</time>
      </trkpt>
      <trkpt lat="46.877097878605127" lon="15.908972751349211">
        <ele>310.64306640625</ele>
        <time>2010-03-28T09:52:19Z</time>
      </trkpt>
      <trkpt lat="46.877285381779075" lon="15.909120440483093">
        <ele>310.1624755859375</ele>
        <time>2010-03-28T09:52:37Z</time>
      </trkpt>
      <trkpt lat="46.877352185547352" lon="15.909225381910801">
        <ele>310.64306640625</ele>
        <time>2010-03-28T09:52:46Z</time>
      </trkpt>
      <trkpt lat="46.877338187769055" lon="15.90961086563766">
        <ele>311.123779296875</ele>
        <time>2010-03-28T09:53:07Z</time>
      </trkpt>
      <trkpt lat="46.877338690683246" lon="15.909685045480728">
        <ele>309.681884765625</ele>
        <time>2010-03-28T09:53:11Z</time>
      </trkpt>
      <trkpt lat="46.877337349578738" lon="15.90970323421061">
        <ele>313.0465087890625</ele>
        <time>2010-03-28T09:53:12Z</time>
      </trkpt>
      <trkpt lat="46.877335840836167" lon="15.909721590578556">
        <ele>311.123779296875</ele>
        <time>2010-03-28T09:53:13Z</time>
      </trkpt>
      <trkpt lat="46.877303654327989" lon="15.91009802184999">
        <ele>313.5272216796875</ele>
        <time>2010-03-28T09:53:34Z</time>
      </trkpt>
      <trkpt lat="46.877304073423147" lon="15.910542430356145">
        <ele>315.930419921875</ele>
        <time>2010-03-28T09:53:59Z</time>
      </trkpt>
      <trkpt lat="46.877375235781074" lon="15.910948030650616">
        <ele>316.4110107421875</ele>
        <time>2010-03-28T09:54:22Z</time>
      </trkpt>
      <trkpt lat="46.877520158886909" lon="15.911152297630906">
        <ele>319.775634765625</ele>
        <time>2010-03-28T09:54:38Z</time>
      </trkpt>
      <trkpt lat="46.877643372863531" lon="15.911324294283986">
        <ele>320.25634765625</ele>
        <time>2010-03-28T09:54:51Z</time>
      </trkpt>
      <trkpt lat="46.877853339537978" lon="15.911421775817871">
        <ele>316.8917236328125</ele>
        <time>2010-03-28T09:55:07Z</time>
      </trkpt>
      <trkpt lat="46.87797705642879" lon="15.911489753052592">
        <ele>320.25634765625</ele>
        <time>2010-03-28T09:55:17Z</time>
      </trkpt>
      <trkpt lat="46.878099767491221" lon="15.911587821319699">
        <ele>319.775634765625</ele>
        <time>2010-03-28T09:55:29Z</time>
      </trkpt>
      <trkpt lat="46.878330269828439" lon="15.911808684468269">
        <ele>319.775634765625</ele>
        <time>2010-03-28T09:55:51Z</time>
      </trkpt>
      <trkpt lat="46.878540152683854" lon="15.912121748551726">
        <ele>318.3336181640625</ele>
        <time>2010-03-28T09:56:15Z</time>
      </trkpt>
      <trkpt lat="46.878748694434762" lon="15.91231788508594">
        <ele>317.3724365234375</ele>
        <time>2010-03-28T09:56:34Z</time>
      </trkpt>
      <trkpt lat="46.878935527056456" lon="15.912362392991781">
        <ele>317.85302734375</ele>
        <time>2010-03-28T09:56:49Z</time>
      </trkpt>
      <trkpt lat="46.879221266135573" lon="15.912610748782754">
        <ele>317.85302734375</ele>
        <time>2010-03-28T09:57:14Z</time>
      </trkpt>
      <trkpt lat="46.879510693252087" lon="15.912908893078566">
        <ele>319.775634765625</ele>
        <time>2010-03-28T09:57:42Z</time>
      </trkpt>
      <trkpt lat="46.879712948575616" lon="15.913051720708609">
        <ele>319.2950439453125</ele>
        <time>2010-03-28T09:58:04Z</time>
      </trkpt>
      <trkpt lat="46.879969770088792" lon="15.913442568853498">
        <ele>320.25634765625</ele>
        <time>2010-03-28T09:58:30Z</time>
      </trkpt>
      <trkpt lat="46.880074627697468" lon="15.913764350116253">
        <ele>322.178955078125</ele>
        <time>2010-03-28T09:58:50Z</time>
      </trkpt>
      <trkpt lat="46.880181077867746" lon="15.91408277861774">
        <ele>322.178955078125</ele>
        <time>2010-03-28T09:59:09Z</time>
      </trkpt>
      <trkpt lat="46.880234386771917" lon="15.914283860474825">
        <ele>320.25634765625</ele>
        <time>2010-03-28T09:59:26Z</time>
      </trkpt>
      <trkpt lat="46.880294065922499" lon="15.914531461894512">
        <ele>319.2950439453125</ele>
        <time>2010-03-28T09:59:42Z</time>
      </trkpt>
      <trkpt lat="46.88034787774086" lon="15.914752073585987">
        <ele>316.8917236328125</ele>
        <time>2010-03-28T09:59:55Z</time>
      </trkpt>
      <trkpt lat="46.880353996530175" lon="15.914788199588656">
        <ele>318.3336181640625</ele>
        <time>2010-03-28T09:59:57Z</time>
      </trkpt>
      <trkpt lat="46.880471762269735" lon="15.915126157924533">
        <ele>318.8143310546875</ele>
        <time>2010-03-28T10:00:18Z</time>
      </trkpt>
      <trkpt lat="46.880526747554541" lon="15.915352553129196">
        <ele>319.775634765625</ele>
        <time>2010-03-28T10:00:33Z</time>
      </trkpt>
      <trkpt lat="46.880491124466062" lon="15.915423631668091">
        <ele>319.775634765625</ele>
        <time>2010-03-28T10:00:49Z</time>
      </trkpt>
      <trkpt lat="46.880484335124493" lon="15.915447436273098">
        <ele>319.2950439453125</ele>
        <time>2010-03-28T10:00:51Z</time>
      </trkpt>
      <trkpt lat="46.880517359822989" lon="15.915507534518838">
        <ele>319.2950439453125</ele>
        <time>2010-03-28T10:00:56Z</time>
      </trkpt>
      <trkpt lat="46.880690446123481" lon="15.915797799825668">
        <ele>320.25634765625</ele>
        <time>2010-03-28T10:01:18Z</time>
      </trkpt>
      <trkpt lat="46.88085506670177" lon="15.916111366823316">
        <ele>320.737060546875</ele>
        <time>2010-03-28T10:01:40Z</time>
      </trkpt>
      <trkpt lat="46.88087216578424" lon="15.916484193876386">
        <ele>321.6983642578125</ele>
        <time>2010-03-28T10:02:01Z</time>
      </trkpt>
      <trkpt lat="46.880920948460698" lon="15.916756186634302">
        <ele>323.6209716796875</ele>
        <time>2010-03-28T10:02:17Z</time>
      </trkpt>
      <trkpt lat="46.881025973707438" lon="15.917148375883698">
        <ele>323.140380859375</ele>
        <time>2010-03-28T10:02:40Z</time>
      </trkpt>
      <trkpt lat="46.881168633699417" lon="15.917535787448287">
        <ele>323.140380859375</ele>
        <time>2010-03-28T10:03:04Z</time>
      </trkpt>
      <trkpt lat="46.881198892369866" lon="15.917607033625245">
        <ele>322.65966796875</ele>
        <time>2010-03-28T10:03:11Z</time>
      </trkpt>
      <trkpt lat="46.881255134940147" lon="15.917838625609875">
        <ele>323.6209716796875</ele>
        <time>2010-03-28T10:03:30Z</time>
      </trkpt>
      <trkpt lat="46.88130509108305" lon="15.918053537607193">
        <ele>324.582275390625</ele>
        <time>2010-03-28T10:03:48Z</time>
      </trkpt>
      <trkpt lat="46.881407182663679" lon="15.918258642777801">
        <ele>325.5435791015625</ele>
        <time>2010-03-28T10:04:04Z</time>
      </trkpt>
      <trkpt lat="46.881508938968182" lon="15.918521331623197">
        <ele>325.5435791015625</ele>
        <time>2010-03-28T10:04:22Z</time>
      </trkpt>
      <trkpt lat="46.881599966436625" lon="15.918738255277276">
        <ele>325.5435791015625</ele>
        <time>2010-03-28T10:04:38Z</time>
      </trkpt>
      <trkpt lat="46.881700046360493" lon="15.91890606097877">
        <ele>326.985595703125</ele>
        <time>2010-03-28T10:04:50Z</time>
      </trkpt>
      <trkpt lat="46.881731227040291" lon="15.918997172266245">
        <ele>327.4661865234375</ele>
        <time>2010-03-28T10:04:56Z</time>
      </trkpt>
      <trkpt lat="46.881744973361492" lon="15.919027682393789">
        <ele>327.4661865234375</ele>
        <time>2010-03-28T10:04:58Z</time>
      </trkpt>
      <trkpt lat="46.881845723837614" lon="15.919243767857552">
        <ele>327.94677734375</ele>
        <time>2010-03-28T10:05:13Z</time>
      </trkpt>
      <trkpt lat="46.881977235898376" lon="15.919483657926321">
        <ele>329.8695068359375</ele>
        <time>2010-03-28T10:05:30Z</time>
      </trkpt>
      <trkpt lat="46.882150154560804" lon="15.919749950990081">
        <ele>333.234130859375</ele>
        <time>2010-03-28T10:05:50Z</time>
      </trkpt>
      <trkpt lat="46.882394487038255" lon="15.919994199648499">
        <ele>332.2728271484375</ele>
        <time>2010-03-28T10:06:13Z</time>
      </trkpt>
      <trkpt lat="46.882415944710374" lon="15.920012220740318">
        <ele>330.3502197265625</ele>
        <time>2010-03-28T10:06:15Z</time>
      </trkpt>
      <trkpt lat="46.882580649107695" lon="15.920100817456841">
        <ele>333.7147216796875</ele>
        <time>2010-03-28T10:06:30Z</time>
      </trkpt>
      <trkpt lat="46.882697241380811" lon="15.920133255422115">
        <ele>334.1954345703125</ele>
        <time>2010-03-28T10:06:42Z</time>
      </trkpt>
      <trkpt lat="46.882863370701671" lon="15.920348754152656">
        <ele>333.7147216796875</ele>
        <time>2010-03-28T10:07:00Z</time>
      </trkpt>
      <trkpt lat="46.883016088977456" lon="15.920436177402735">
        <ele>335.6373291015625</ele>
        <time>2010-03-28T10:07:16Z</time>
      </trkpt>
      <trkpt lat="46.883038887754083" lon="15.920423269271851">
        <ele>335.15673828125</ele>
        <time>2010-03-28T10:07:19Z</time>
      </trkpt>
      <trkpt lat="46.883050370961428" lon="15.920380773022771">
        <ele>335.6373291015625</ele>
        <time>2010-03-28T10:07:23Z</time>
      </trkpt>
      <trkpt lat="46.883058166131377" lon="15.920291170477867">
        <ele>335.6373291015625</ele>
        <time>2010-03-28T10:07:28Z</time>
      </trkpt>
      <trkpt lat="46.883146427571774" lon="15.920262085273862">
        <ele>336.598876953125</ele>
        <time>2010-03-28T10:07:45Z</time>
      </trkpt>
      <trkpt lat="46.883184146136045" lon="15.920383958145976">
        <ele>336.598876953125</ele>
        <time>2010-03-28T10:08:18Z</time>
      </trkpt>
      <trkpt lat="46.883136285468936" lon="15.920325452461839">
        <ele>336.1181640625</ele>
        <time>2010-03-28T10:08:32Z</time>
      </trkpt>
      <trkpt lat="46.883093370124698" lon="15.920310951769352">
        <ele>336.1181640625</ele>
        <time>2010-03-28T10:08:36Z</time>
      </trkpt>
      <trkpt lat="46.883015334606171" lon="15.920177847146988">
        <ele>338.040771484375</ele>
        <time>2010-03-28T10:08:52Z</time>
      </trkpt>
      <trkpt lat="46.882926067337394" lon="15.920136524364352">
        <ele>339.482666015625</ele>
        <time>2010-03-28T10:09:07Z</time>
      </trkpt>
      <trkpt lat="46.882821125909686" lon="15.919919433072209">
        <ele>340.444091796875</ele>
        <time>2010-03-28T10:09:24Z</time>
      </trkpt>
      <trkpt lat="46.882722722366452" lon="15.919800158590078">
        <ele>343.327880859375</ele>
        <time>2010-03-28T10:09:41Z</time>
      </trkpt>
      <trkpt lat="46.882693218067288" lon="15.91975137591362">
        <ele>342.36669921875</ele>
        <time>2010-03-28T10:09:59Z</time>
      </trkpt>
      <trkpt lat="46.882708556950092" lon="15.919664371758699">
        <ele>345.2506103515625</ele>
        <time>2010-03-28T10:10:05Z</time>
      </trkpt>
      <trkpt lat="46.882695481181145" lon="15.919528417289257">
        <ele>345.2506103515625</ele>
        <time>2010-03-28T10:10:21Z</time>
      </trkpt>
      <trkpt lat="46.882695648819208" lon="15.919526740908623">
        <ele>345.2506103515625</ele>
        <time>2010-03-28T10:10:22Z</time>
      </trkpt>
      <trkpt lat="46.882717190310359" lon="15.919494219124317">
        <ele>345.2506103515625</ele>
        <time>2010-03-28T10:10:44Z</time>
      </trkpt>
      <trkpt lat="46.882784329354763" lon="15.919377626851201">
        <ele>346.692626953125</ele>
        <time>2010-03-28T10:11:04Z</time>
      </trkpt>
      <trkpt lat="46.882806289941072" lon="15.9193414170295">
        <ele>347.1732177734375</ele>
        <time>2010-03-28T10:11:24Z</time>
      </trkpt>
      <trkpt lat="46.882853647693992" lon="15.919336220249534">
        <ele>347.6539306640625</ele>
        <time>2010-03-28T10:11:48Z</time>
      </trkpt>
      <trkpt lat="46.882818778976798" lon="15.919422972947359">
        <ele>346.692626953125</ele>
        <time>2010-03-28T10:12:01Z</time>
      </trkpt>
      <trkpt lat="46.882909638807178" lon="15.91930327937007">
        <ele>348.1346435546875</ele>
        <time>2010-03-28T10:12:16Z</time>
      </trkpt>
      <trkpt lat="46.883007539436221" lon="15.919157518073916">
        <ele>350.537841796875</ele>
        <time>2010-03-28T10:12:31Z</time>
      </trkpt>
      <trkpt lat="46.883087921887636" lon="15.919018965214491">
        <ele>351.9798583984375</ele>
        <time>2010-03-28T10:12:45Z</time>
      </trkpt>
      <trkpt lat="46.883198982104659" lon="15.918902875855565">
        <ele>352.4605712890625</ele>
        <time>2010-03-28T10:12:59Z</time>
      </trkpt>
      <trkpt lat="46.883238963782787" lon="15.918808495625854">
        <ele>352.941162109375</ele>
        <time>2010-03-28T10:13:08Z</time>
      </trkpt>
      <trkpt lat="46.883328147232533" lon="15.918622082099319">
        <ele>357.26708984375</ele>
        <time>2010-03-28T10:13:26Z</time>
      </trkpt>
      <trkpt lat="46.883457479998469" lon="15.9185781609267">
        <ele>358.2283935546875</ele>
        <time>2010-03-28T10:13:41Z</time>
      </trkpt>
      <trkpt lat="46.883586226031184" lon="15.918433573096991">
        <ele>360.151123046875</ele>
        <time>2010-03-28T10:13:57Z</time>
      </trkpt>
      <trkpt lat="46.883601061999798" lon="15.918390322476625">
        <ele>360.151123046875</ele>
        <time>2010-03-28T10:14:12Z</time>
      </trkpt>
      <trkpt lat="46.883644480258226" lon="15.91833776794374">
        <ele>360.151123046875</ele>
        <time>2010-03-28T10:14:25Z</time>
      </trkpt>
      <trkpt lat="46.883718827739358" lon="15.918272472918034">
        <ele>362.07373046875</ele>
        <time>2010-03-28T10:14:43Z</time>
      </trkpt>
      <trkpt lat="46.883783871307969" lon="15.918264426290989">
        <ele>362.07373046875</ele>
        <time>2010-03-28T10:14:57Z</time>
      </trkpt>
      <trkpt lat="46.883912282064557" lon="15.918160742148757">
        <ele>363.996337890625</ele>
        <time>2010-03-28T10:15:13Z</time>
      </trkpt>
      <trkpt lat="46.883983360603452" lon="15.918200388550758">
        <ele>364.4769287109375</ele>
        <time>2010-03-28T10:15:27Z</time>
      </trkpt>
      <trkpt lat="46.883966429159045" lon="15.918269455432892">
        <ele>363.996337890625</ele>
        <time>2010-03-28T10:15:43Z</time>
      </trkpt>
      <trkpt lat="46.883954862132668" lon="15.918288230895996">
        <ele>365.9189453125</ele>
        <time>2010-03-28T10:15:45Z</time>
      </trkpt>
      <trkpt lat="46.883964668959379" lon="15.918422592803836">
        <ele>367.841552734375</ele>
        <time>2010-03-28T10:15:58Z</time>
      </trkpt>
      <trkpt lat="46.883913790807128" lon="15.918579837307334">
        <ele>368.322265625</ele>
        <time>2010-03-28T10:16:11Z</time>
      </trkpt>
      <trkpt lat="46.883902978152037" lon="15.91864706017077">
        <ele>369.28369140625</ele>
        <time>2010-03-28T10:16:25Z</time>
      </trkpt>
      <trkpt lat="46.884008422493935" lon="15.918859960511327">
        <ele>374.090087890625</ele>
        <time>2010-03-28T10:16:53Z</time>
      </trkpt>
      <trkpt lat="46.883941870182753" lon="15.918990885838866">
        <ele>375.051513671875</ele>
        <time>2010-03-28T10:17:09Z</time>
      </trkpt>
      <trkpt lat="46.883966764435172" lon="15.919036734849215">
        <ele>375.051513671875</ele>
        <time>2010-03-28T10:17:15Z</time>
      </trkpt>
      <trkpt lat="46.884036920964718" lon="15.919113429263234">
        <ele>374.57080078125</ele>
        <time>2010-03-28T10:17:28Z</time>
      </trkpt>
      <trkpt lat="46.884083691984415" lon="15.919205378741026">
        <ele>375.051513671875</ele>
        <time>2010-03-28T10:17:40Z</time>
      </trkpt>
      <trkpt lat="46.884175725281239" lon="15.919220382347703">
        <ele>377.454833984375</ele>
        <time>2010-03-28T10:17:54Z</time>
      </trkpt>
      <trkpt lat="46.884295167401433" lon="15.919223735108972">
        <ele>378.4161376953125</ele>
        <time>2010-03-28T10:18:07Z</time>
      </trkpt>
      <trkpt lat="46.884331880137324" lon="15.919234128668904">
        <ele>378.8968505859375</ele>
        <time>2010-03-28T10:18:12Z</time>
      </trkpt>
      <trkpt lat="46.884429948404431" lon="15.919332029297948">
        <ele>379.8580322265625</ele>
        <time>2010-03-28T10:18:24Z</time>
      </trkpt>
      <trkpt lat="46.884514354169369" lon="15.91941962018609">
        <ele>383.22265625</ele>
        <time>2010-03-28T10:18:36Z</time>
      </trkpt>
      <trkpt lat="46.884592557325959" lon="15.919479886069894">
        <ele>384.18408203125</ele>
        <time>2010-03-28T10:18:49Z</time>
      </trkpt>
      <trkpt lat="46.884659696370363" lon="15.919509641826153">
        <ele>385.1453857421875</ele>
        <time>2010-03-28T10:19:12Z</time>
      </trkpt>
      <trkpt lat="46.884659864008427" lon="15.919401263818145">
        <ele>384.664794921875</ele>
        <time>2010-03-28T10:19:42Z</time>
      </trkpt>
      <trkpt lat="46.884634299203753" lon="15.919353738427162">
        <ele>385.1453857421875</ele>
        <time>2010-03-28T10:19:47Z</time>
      </trkpt>
      <trkpt lat="46.884552491828799" lon="15.919176461175084">
        <ele>387.0679931640625</ele>
        <time>2010-03-28T10:20:03Z</time>
      </trkpt>
      <trkpt lat="46.884593395516276" lon="15.919122397899628">
        <ele>388.9906005859375</ele>
        <time>2010-03-28T10:20:18Z</time>
      </trkpt>
      <trkpt lat="46.884642262011766" lon="15.919135641306639">
        <ele>389.951904296875</ele>
        <time>2010-03-28T10:20:31Z</time>
      </trkpt>
      <trkpt lat="46.884732786566019" lon="15.919263046234846">
        <ele>391.393798828125</ele>
        <time>2010-03-28T10:20:45Z</time>
      </trkpt>
      <trkpt lat="46.884861616417766" lon="15.919260028749704">
        <ele>392.8359375</ele>
        <time>2010-03-28T10:21:03Z</time>
      </trkpt>
      <trkpt lat="46.884858179837465" lon="15.919060287997127">
        <ele>394.2779541015625</ele>
        <time>2010-03-28T10:21:20Z</time>
      </trkpt>
      <trkpt lat="46.88487988896668" lon="15.918971775099635">
        <ele>397.6424560546875</ele>
        <time>2010-03-28T10:21:29Z</time>
      </trkpt>
      <trkpt lat="46.884884582832456" lon="15.918932463973761">
        <ele>395.2391357421875</ele>
        <time>2010-03-28T10:21:34Z</time>
      </trkpt>
      <trkpt lat="46.884884582832456" lon="15.918929278850555">
        <ele>399.5650634765625</ele>
        <time>2010-03-28T10:21:35Z</time>
      </trkpt>
      <trkpt lat="46.884884163737297" lon="15.918926596641541">
        <ele>396.68115234375</ele>
        <time>2010-03-28T10:21:36Z</time>
      </trkpt>
      <trkpt lat="46.8848632927984" lon="15.918863145634532">
        <ele>397.6424560546875</ele>
        <time>2010-03-28T10:21:49Z</time>
      </trkpt>
      <trkpt lat="46.884894054383039" lon="15.91861336492002">
        <ele>398.603759765625</ele>
        <time>2010-03-28T10:22:08Z</time>
      </trkpt>
      <trkpt lat="46.884896568953991" lon="15.918544130399823">
        <ele>397.6424560546875</ele>
        <time>2010-03-28T10:22:13Z</time>
      </trkpt>
      <trkpt lat="46.884938646107912" lon="15.918254870921373">
        <ele>400.5264892578125</ele>
        <time>2010-03-28T10:22:32Z</time>
      </trkpt>
      <trkpt lat="46.884985417127609" lon="15.918004335835576">
        <ele>402.9296875</ele>
        <time>2010-03-28T10:22:50Z</time>
      </trkpt>
      <trkpt lat="46.884976699948311" lon="15.917980447411537">
        <ele>403.410400390625</ele>
        <time>2010-03-28T10:23:06Z</time>
      </trkpt>
      <trkpt lat="46.885013747960329" lon="15.917882965877652">
        <ele>403.410400390625</ele>
        <time>2010-03-28T10:23:22Z</time>
      </trkpt>
      <trkpt lat="46.885069068521261" lon="15.917820269241929">
        <ele>403.410400390625</ele>
        <time>2010-03-28T10:23:35Z</time>
      </trkpt>
      <trkpt lat="46.885147020220757" lon="15.917753465473652">
        <ele>406.77490234375</ele>
        <time>2010-03-28T10:23:46Z</time>
      </trkpt>
      <trkpt lat="46.885194797068834" lon="15.917704431340098">
        <ele>407.255615234375</ele>
        <time>2010-03-28T10:23:52Z</time>
      </trkpt>
      <trkpt lat="46.885304097086191" lon="15.91756914742291">
        <ele>407.255615234375</ele>
        <time>2010-03-28T10:24:08Z</time>
      </trkpt>
      <trkpt lat="46.885410044342279" lon="15.917481640353799">
        <ele>408.6976318359375</ele>
        <time>2010-03-28T10:24:23Z</time>
      </trkpt>
      <trkpt lat="46.885465867817402" lon="15.91735121794045">
        <ele>410.6202392578125</ele>
        <time>2010-03-28T10:24:38Z</time>
      </trkpt>
      <trkpt lat="46.885545747354627" lon="15.917188692837954">
        <ele>410.6202392578125</ele>
        <time>2010-03-28T10:24:56Z</time>
      </trkpt>
      <trkpt lat="46.885484056547284" lon="15.917236134409904">
        <ele>411.1009521484375</ele>
        <time>2010-03-28T10:25:21Z</time>
      </trkpt>
      <trkpt lat="46.885567372664809" lon="15.917163966223598">
        <ele>412.062255859375</ele>
        <time>2010-03-28T10:25:38Z</time>
      </trkpt>
      <trkpt lat="46.885617831721902" lon="15.9171880222857">
        <ele>413.5042724609375</ele>
        <time>2010-03-28T10:26:11Z</time>
      </trkpt>
      <trkpt lat="46.885551447048783" lon="15.917170336470008">
        <ele>411.1009521484375</ele>
        <time>2010-03-28T10:26:32Z</time>
      </trkpt>
      <trkpt lat="46.885551698505878" lon="15.917143765836954">
        <ele>412.5428466796875</ele>
        <time>2010-03-28T10:26:35Z</time>
      </trkpt>
      <trkpt lat="46.885560750961304" lon="15.917182490229607">
        <ele>411.1009521484375</ele>
        <time>2010-03-28T10:27:17Z</time>
      </trkpt>
      <trkpt lat="46.885559326037765" lon="15.917230099439621">
        <ele>411.5816650390625</ele>
        <time>2010-03-28T10:27:50Z</time>
      </trkpt>
      <trkpt lat="46.885574916377664" lon="15.91721492819488">
        <ele>412.5428466796875</ele>
        <time>2010-03-28T10:28:42Z</time>
      </trkpt>
      <trkpt lat="46.885570222511888" lon="15.917309895157814">
        <ele>412.5428466796875</ele>
        <time>2010-03-28T10:28:52Z</time>
      </trkpt>
      <trkpt lat="46.885589836165309" lon="15.917498571798205">
        <ele>414.9461669921875</ele>
        <time>2010-03-28T10:29:07Z</time>
      </trkpt>
      <trkpt lat="46.885599894449115" lon="15.917592281475663">
        <ele>415.4268798828125</ele>
        <time>2010-03-28T10:29:16Z</time>
      </trkpt>
      <trkpt lat="46.885527223348618" lon="15.917787663638592">
        <ele>418.79150390625</ele>
        <time>2010-03-28T10:29:31Z</time>
      </trkpt>
      <trkpt lat="46.88553367741406" lon="15.917839966714382">
        <ele>419.272216796875</ele>
        <time>2010-03-28T10:29:44Z</time>
      </trkpt>
      <trkpt lat="46.885630739852786" lon="15.917834434658289">
        <ele>422.156005859375</ele>
        <time>2010-03-28T10:30:01Z</time>
      </trkpt>
      <trkpt lat="46.885666027665138" lon="15.918006682768464">
        <ele>424.0787353515625</ele>
        <time>2010-03-28T10:30:14Z</time>
      </trkpt>
      <trkpt lat="46.885715732350945" lon="15.918188150972128">
        <ele>423.5980224609375</ele>
        <time>2010-03-28T10:30:28Z</time>
      </trkpt>
      <trkpt lat="46.885756552219391" lon="15.918398788198829">
        <ele>427.9239501953125</ele>
        <time>2010-03-28T10:30:44Z</time>
      </trkpt>
      <trkpt lat="46.885870043188334" lon="15.918471878394485">
        <ele>429.365966796875</ele>
        <time>2010-03-28T10:30:58Z</time>
      </trkpt>
      <trkpt lat="46.885994849726558" lon="15.918508674949408">
        <ele>430.8079833984375</ele>
        <time>2010-03-28T10:31:14Z</time>
      </trkpt>
      <trkpt lat="46.886178916320205" lon="15.918440194800496">
        <ele>431.7691650390625</ele>
        <time>2010-03-28T10:31:35Z</time>
      </trkpt>
      <trkpt lat="46.886287964880466" lon="15.91839593835175">
        <ele>434.172607421875</ele>
        <time>2010-03-28T10:31:54Z</time>
      </trkpt>
      <trkpt lat="46.88629156909883" lon="15.918330475687981">
        <ele>434.6533203125</ele>
        <time>2010-03-28T10:32:00Z</time>
      </trkpt>
      <trkpt lat="46.886294754222035" lon="15.918270964175463">
        <ele>434.172607421875</ele>
        <time>2010-03-28T10:32:20Z</time>
      </trkpt>
      <trkpt lat="46.886303219944239" lon="15.918270796537399">
        <ele>434.6533203125</ele>
        <time>2010-03-28T10:32:53Z</time>
      </trkpt>
      <trkpt lat="46.886295340955257" lon="15.918329721316695">
        <ele>435.1339111328125</ele>
        <time>2010-03-28T10:33:12Z</time>
      </trkpt>
      <trkpt lat="46.886242534965277" lon="15.9183519333601">
        <ele>434.6533203125</ele>
        <time>2010-03-28T10:33:39Z</time>
      </trkpt>
      <trkpt lat="46.886255275458097" lon="15.918331481516361">
        <ele>433.69189453125</ele>
        <time>2010-03-28T10:34:26Z</time>
      </trkpt>
      <trkpt lat="46.886289222165942" lon="15.918230228126049">
        <ele>434.172607421875</ele>
        <time>2010-03-28T10:35:19Z</time>
      </trkpt>
      <trkpt lat="46.886306991800666" lon="15.918249087408185">
        <ele>429.365966796875</ele>
        <time>2010-03-28T10:35:24Z</time>
      </trkpt>
      <trkpt lat="46.886308249086142" lon="15.918245231732726">
        <ele>439.459716796875</ele>
        <time>2010-03-28T10:35:25Z</time>
      </trkpt>
      <trkpt lat="46.88630816526711" lon="15.918245986104012">
        <ele>434.6533203125</ele>
        <time>2010-03-28T10:35:26Z</time>
      </trkpt>
      <trkpt lat="46.8863604683429" lon="15.918369619175792">
        <ele>433.69189453125</ele>
        <time>2010-03-28T10:35:47Z</time>
      </trkpt>
      <trkpt lat="46.886436240747571" lon="15.918359644711018">
        <ele>435.1339111328125</ele>
        <time>2010-03-28T10:36:04Z</time>
      </trkpt>
      <trkpt lat="46.886569261550903" lon="15.91825713403523">
        <ele>438.9791259765625</ele>
        <time>2010-03-28T10:36:24Z</time>
      </trkpt>
      <trkpt lat="46.886604046449065" lon="15.918249925598502">
        <ele>438.9791259765625</ele>
        <time>2010-03-28T10:36:28Z</time>
      </trkpt>
      <trkpt lat="46.886730864644051" lon="15.918228970840573">
        <ele>439.459716796875</ele>
        <time>2010-03-28T10:36:46Z</time>
      </trkpt>
      <trkpt lat="46.886833962053061" lon="15.918232323601842">
        <ele>440.90185546875</ele>
        <time>2010-03-28T10:37:07Z</time>
      </trkpt>
      <trkpt lat="46.886884169653058" lon="15.918230898678303">
        <ele>444.2664794921875</ele>
        <time>2010-03-28T10:37:14Z</time>
      </trkpt>
      <trkpt lat="46.886934293434024" lon="15.918213464319706">
        <ele>444.2664794921875</ele>
        <time>2010-03-28T10:37:19Z</time>
      </trkpt>
      <trkpt lat="46.887011071667075" lon="15.918141547590494">
        <ele>446.669677734375</ele>
        <time>2010-03-28T10:37:35Z</time>
      </trkpt>
      <trkpt lat="46.887095561251044" lon="15.918073570355773">
        <ele>449.072998046875</ele>
        <time>2010-03-28T10:37:54Z</time>
      </trkpt>
      <trkpt lat="46.887188432738185" lon="15.917972568422556">
        <ele>452.4376220703125</ele>
        <time>2010-03-28T10:38:08Z</time>
      </trkpt>
      <trkpt lat="46.887287087738514" lon="15.917901154607534">
        <ele>452.918212890625</ele>
        <time>2010-03-28T10:38:21Z</time>
      </trkpt>
      <trkpt lat="46.887311898171902" lon="15.917743155732751">
        <ele>453.879638671875</ele>
        <time>2010-03-28T10:38:36Z</time>
      </trkpt>
      <trkpt lat="46.887300917878747" lon="15.917676351964474">
        <ele>455.321533203125</ele>
        <time>2010-03-28T10:38:50Z</time>
      </trkpt>
      <trkpt lat="46.887289434671402" lon="15.917513826861978">
        <ele>453.879638671875</ele>
        <time>2010-03-28T10:39:05Z</time>
      </trkpt>
      <trkpt lat="46.887283399701118" lon="15.917260441929102">
        <ele>454.3602294921875</ele>
        <time>2010-03-28T10:39:23Z</time>
      </trkpt>
      <trkpt lat="46.88728834502399" lon="15.917021976783872">
        <ele>454.3602294921875</ele>
        <time>2010-03-28T10:39:38Z</time>
      </trkpt>
      <trkpt lat="46.887347521260381" lon="15.9167614672333">
        <ele>452.918212890625</ele>
        <time>2010-03-28T10:39:54Z</time>
      </trkpt>
      <trkpt lat="46.887396974489093" lon="15.916600786149502">
        <ele>452.4376220703125</ele>
        <time>2010-03-28T10:40:07Z</time>
      </trkpt>
      <trkpt lat="46.887459168210626" lon="15.916305743157864">
        <ele>453.39892578125</ele>
        <time>2010-03-28T10:40:24Z</time>
      </trkpt>
      <trkpt lat="46.887486828491092" lon="15.916198622435331">
        <ele>454.3602294921875</ele>
        <time>2010-03-28T10:40:39Z</time>
      </trkpt>
      <trkpt lat="46.887546256184578" lon="15.916186049580574">
        <ele>456.7635498046875</ele>
        <time>2010-03-28T10:40:53Z</time>
      </trkpt>
      <trkpt lat="46.887633847072721" lon="15.916149169206619">
        <ele>457.2442626953125</ele>
        <time>2010-03-28T10:41:08Z</time>
      </trkpt>
      <trkpt lat="46.887699980288744" lon="15.916096279397607">
        <ele>461.0894775390625</ele>
        <time>2010-03-28T10:41:19Z</time>
      </trkpt>
      <trkpt lat="46.887842891737819" lon="15.916079180315137">
        <ele>462.5313720703125</ele>
        <time>2010-03-28T10:41:35Z</time>
      </trkpt>
      <trkpt lat="46.887959567829967" lon="15.916208932176232">
        <ele>464.4541015625</ele>
        <time>2010-03-28T10:41:49Z</time>
      </trkpt>
      <trkpt lat="46.887974319979548" lon="15.916335247457027">
        <ele>467.8187255859375</ele>
        <time>2010-03-28T10:42:04Z</time>
      </trkpt>
      <trkpt lat="46.887999549508095" lon="15.916200382634997">
        <ele>467.8187255859375</ele>
        <time>2010-03-28T10:42:18Z</time>
      </trkpt>
      <trkpt lat="46.888055624440312" lon="15.916048418730497">
        <ele>471.183349609375</ele>
        <time>2010-03-28T10:42:34Z</time>
      </trkpt>
      <trkpt lat="46.888118656352162" lon="15.91601044870913">
        <ele>472.6253662109375</ele>
        <time>2010-03-28T10:42:50Z</time>
      </trkpt>
      <trkpt lat="46.888069286942482" lon="15.915934843942523">
        <ele>472.1446533203125</ele>
        <time>2010-03-28T10:43:30Z</time>
      </trkpt>
      <trkpt lat="46.888099629431963" lon="15.915955128148198">
        <ele>472.6253662109375</ele>
        <time>2010-03-28T10:43:49Z</time>
      </trkpt>
      <trkpt lat="46.888136342167854" lon="15.915905591100454">
        <ele>473.586669921875</ele>
        <time>2010-03-28T10:44:15Z</time>
      </trkpt>
      <trkpt lat="46.888115471228957" lon="15.915867453441024">
        <ele>473.586669921875</ele>
        <time>2010-03-28T10:44:32Z</time>
      </trkpt>
      <trkpt lat="46.888037687167525" lon="15.915791681036353">
        <ele>475.9898681640625</ele>
        <time>2010-03-28T10:44:43Z</time>
      </trkpt>
      <trkpt lat="46.887989994138479" lon="15.915710125118494">
        <ele>479.3544921875</ele>
        <time>2010-03-28T10:44:52Z</time>
      </trkpt>
      <trkpt lat="46.887989155948162" lon="15.915703419595957">
        <ele>474.0672607421875</ele>
        <time>2010-03-28T10:44:53Z</time>
      </trkpt>
      <trkpt lat="46.887983456254005" lon="15.915683889761567">
        <ele>478.8739013671875</ele>
        <time>2010-03-28T10:44:55Z</time>
      </trkpt>
      <trkpt lat="46.887915479019284" lon="15.915562771260738">
        <ele>477.9124755859375</ele>
        <time>2010-03-28T10:45:09Z</time>
      </trkpt>
      <trkpt lat="46.887779356911778" lon="15.915416171774268">
        <ele>478.3931884765625</ele>
        <time>2010-03-28T10:45:28Z</time>
      </trkpt>
      <trkpt lat="46.887722527608275" lon="15.91528088785708">
        <ele>480.31591796875</ele>
        <time>2010-03-28T10:45:44Z</time>
      </trkpt>
      <trkpt lat="46.887719593942165" lon="15.915277032181621">
        <ele>483.680419921875</ele>
        <time>2010-03-28T10:46:04Z</time>
      </trkpt>
      <trkpt lat="46.887716827914119" lon="15.915276864543557">
        <ele>480.31591796875</ele>
        <time>2010-03-28T10:46:05Z</time>
      </trkpt>
      <trkpt lat="46.887706937268376" lon="15.915278540924191">
        <ele>483.680419921875</ele>
        <time>2010-03-28T10:46:07Z</time>
      </trkpt>
      <trkpt lat="46.887711882591248" lon="15.915274182334542">
        <ele>487.525634765625</ele>
        <time>2010-03-28T10:46:19Z</time>
      </trkpt>
      <trkpt lat="46.887696795165539" lon="15.915273176506162">
        <ele>484.641845703125</ele>
        <time>2010-03-28T10:46:23Z</time>
      </trkpt>
      <trkpt lat="46.887673828750849" lon="15.915297316387296">
        <ele>483.680419921875</ele>
        <time>2010-03-28T10:46:50Z</time>
      </trkpt>
      <trkpt lat="46.887673828750849" lon="15.91530536301434">
        <ele>487.0450439453125</ele>
        <time>2010-03-28T10:46:53Z</time>
      </trkpt>
      <trkpt lat="46.887658322229981" lon="15.915318857878447">
        <ele>483.680419921875</ele>
        <time>2010-03-28T10:47:00Z</time>
      </trkpt>
      <trkpt lat="46.887667458504438" lon="15.915292287245393">
        <ele>484.641845703125</ele>
        <time>2010-03-28T10:47:44Z</time>
      </trkpt>
      <trkpt lat="46.887673325836658" lon="15.915319947525859">
        <ele>484.1611328125</ele>
        <time>2010-03-28T10:47:54Z</time>
      </trkpt>
      <trkpt lat="46.887677432969213" lon="15.915286084637046">
        <ele>480.796630859375</ele>
        <time>2010-03-28T10:48:00Z</time>
      </trkpt>
      <trkpt lat="46.887707356363535" lon="15.915285246446729">
        <ele>480.31591796875</ele>
        <time>2010-03-28T10:48:17Z</time>
      </trkpt>
      <trkpt lat="46.887754630297422" lon="15.91517343185842">
        <ele>480.796630859375</ele>
        <time>2010-03-28T10:48:34Z</time>
      </trkpt>
      <trkpt lat="46.887842891737819" lon="15.915062036365271">
        <ele>482.238525390625</ele>
        <time>2010-03-28T10:48:51Z</time>
      </trkpt>
      <trkpt lat="46.887831157073379" lon="15.915003530681133">
        <ele>483.1998291015625</ele>
        <time>2010-03-28T10:49:09Z</time>
      </trkpt>
      <trkpt lat="46.887850183993578" lon="15.914995651692152">
        <ele>484.1611328125</ele>
        <time>2010-03-28T10:49:31Z</time>
      </trkpt>
      <trkpt lat="46.888148076832294" lon="15.915250964462757">
        <ele>479.8350830078125</ele>
        <time>2010-03-28T10:52:47Z</time>
      </trkpt>
      <trkpt lat="46.888013044372201" lon="15.915347775444388">
        <ele>483.1998291015625</ele>
        <time>2010-03-28T10:53:00Z</time>
      </trkpt>
      <trkpt lat="46.888017319142818" lon="15.91534836217761">
        <ele>483.1998291015625</ele>
        <time>2010-03-28T10:53:01Z</time>
      </trkpt>
      <trkpt lat="46.888119243085384" lon="15.915340734645724">
        <ele>482.238525390625</ele>
        <time>2010-03-28T10:53:14Z</time>
      </trkpt>
      <trkpt lat="46.888178838416934" lon="15.915378788486123">
        <ele>481.2772216796875</ele>
        <time>2010-03-28T10:53:29Z</time>
      </trkpt>
      <trkpt lat="46.888221837580204" lon="15.915402341634035">
        <ele>481.2772216796875</ele>
        <time>2010-03-28T10:53:33Z</time>
      </trkpt>
      <trkpt lat="46.888387128710747" lon="15.915352469310164">
        <ele>482.238525390625</ele>
        <time>2010-03-28T10:53:49Z</time>
      </trkpt>
      <trkpt lat="46.888517886400223" lon="15.91541089117527">
        <ele>481.7578125</ele>
        <time>2010-03-28T10:54:07Z</time>
      </trkpt>
      <trkpt lat="46.888547642156482" lon="15.915406784042716">
        <ele>481.7578125</ele>
        <time>2010-03-28T10:54:13Z</time>
      </trkpt>
      <trkpt lat="46.88858175650239" lon="15.915360348299146">
        <ele>479.8350830078125</ele>
        <time>2010-03-28T10:54:19Z</time>
      </trkpt>
      <trkpt lat="46.888728188350797" lon="15.915247779339552">
        <ele>476.9512939453125</ele>
        <time>2010-03-28T10:54:35Z</time>
      </trkpt>
      <trkpt lat="46.888804463669658" lon="15.915200086310506">
        <ele>475.50927734375</ele>
        <time>2010-03-28T10:54:43Z</time>
      </trkpt>
      <trkpt lat="46.888959277421236" lon="15.915113752707839">
        <ele>474.5479736328125</ele>
        <time>2010-03-28T10:54:57Z</time>
      </trkpt>
      <trkpt lat="46.889124317094684" lon="15.914973523467779">
        <ele>470.70263671875</ele>
        <time>2010-03-28T10:55:12Z</time>
      </trkpt>
      <trkpt lat="46.889132866635919" lon="15.914960950613022">
        <ele>470.70263671875</ele>
        <time>2010-03-28T10:55:13Z</time>
      </trkpt>
      <trkpt lat="46.889342665672302" lon="15.914798760786653">
        <ele>469.2607421875</ele>
        <time>2010-03-28T10:55:33Z</time>
      </trkpt>
      <trkpt lat="46.889587417244911" lon="15.914698680862784">
        <ele>468.29931640625</ele>
        <time>2010-03-28T10:55:55Z</time>
      </trkpt>
      <trkpt lat="46.889724880456924" lon="15.914677223190665">
        <ele>466.857421875</ele>
        <time>2010-03-28T10:56:11Z</time>
      </trkpt>
      <trkpt lat="46.889993017539382" lon="15.914608491584659">
        <ele>468.29931640625</ele>
        <time>2010-03-28T10:56:33Z</time>
      </trkpt>
      <trkpt lat="46.89014389179647" lon="15.914540933445096">
        <ele>466.857421875</ele>
        <time>2010-03-28T10:56:52Z</time>
      </trkpt>
      <trkpt lat="46.890313541516662" lon="15.914440350607038">
        <ele>467.338134765625</ele>
        <time>2010-03-28T10:57:09Z</time>
      </trkpt>
      <trkpt lat="46.890304740518332" lon="15.914447894319892">
        <ele>466.857421875</ele>
        <time>2010-03-28T10:57:22Z</time>
      </trkpt>
      <trkpt lat="46.890534069389105" lon="15.914277238771319">
        <ele>466.376708984375</ele>
        <time>2010-03-28T10:57:43Z</time>
      </trkpt>
      <trkpt lat="46.890665832906961" lon="15.914199119433761">
        <ele>464.934814453125</ele>
        <time>2010-03-28T10:57:55Z</time>
      </trkpt>
      <trkpt lat="46.890865741297603" lon="15.914140865206718">
        <ele>467.338134765625</ele>
        <time>2010-03-28T10:58:12Z</time>
      </trkpt>
      <trkpt lat="46.890959283336997" lon="15.914125023409724">
        <ele>466.857421875</ele>
        <time>2010-03-28T10:58:21Z</time>
      </trkpt>
      <trkpt lat="46.891136728227139" lon="15.914067272096872">
        <ele>468.29931640625</ele>
        <time>2010-03-28T10:58:38Z</time>
      </trkpt>
      <trkpt lat="46.891244016587734" lon="15.914025697857141">
        <ele>470.70263671875</ele>
        <time>2010-03-28T10:58:47Z</time>
      </trkpt>
      <trkpt lat="46.891449121758342" lon="15.914016393944621">
        <ele>471.6639404296875</ele>
        <time>2010-03-28T10:59:06Z</time>
      </trkpt>
      <trkpt lat="46.891634948551655" lon="15.913986386731267">
        <ele>473.1060791015625</ele>
        <time>2010-03-28T10:59:24Z</time>
      </trkpt>
      <trkpt lat="46.891742739826441" lon="15.913928467780352">
        <ele>475.50927734375</ele>
        <time>2010-03-28T10:59:37Z</time>
      </trkpt>
      <trkpt lat="46.891905935481191" lon="15.913830734789371">
        <ele>478.3931884765625</ele>
        <time>2010-03-28T10:59:56Z</time>
      </trkpt>
      <trkpt lat="46.891923118382692" lon="15.913815647363663">
        <ele>479.3544921875</ele>
        <time>2010-03-28T11:00:13Z</time>
      </trkpt>
      <trkpt lat="46.892057061195374" lon="15.91370852664113">
        <ele>479.8350830078125</ele>
        <time>2010-03-28T11:00:32Z</time>
      </trkpt>
      <trkpt lat="46.892241965979338" lon="15.913624875247478">
        <ele>482.238525390625</ele>
        <time>2010-03-28T11:00:51Z</time>
      </trkpt>
      <trkpt lat="46.892434665933251" lon="15.913667874410748">
        <ele>484.641845703125</ele>
        <time>2010-03-28T11:01:11Z</time>
      </trkpt>
      <trkpt lat="46.892630886286497" lon="15.913580534979701">
        <ele>486.083740234375</ele>
        <time>2010-03-28T11:01:32Z</time>
      </trkpt>
      <trkpt lat="46.892762733623385" lon="15.913387918844819">
        <ele>488.4871826171875</ele>
        <time>2010-03-28T11:01:51Z</time>
      </trkpt>
      <trkpt lat="46.89288854598999" lon="15.913169654086232">
        <ele>489.9290771484375</ele>
        <time>2010-03-28T11:02:12Z</time>
      </trkpt>
      <trkpt lat="46.892929030582309" lon="15.913067227229476">
        <ele>490.4097900390625</ele>
        <time>2010-03-28T11:02:21Z</time>
      </trkpt>
      <trkpt lat="46.892939591780305" lon="15.912882573902607">
        <ele>489.9290771484375</ele>
        <time>2010-03-28T11:02:40Z</time>
      </trkpt>
      <trkpt lat="46.892959037795663" lon="15.912812165915966">
        <ele>488.0064697265625</ele>
        <time>2010-03-28T11:02:53Z</time>
      </trkpt>
      <trkpt lat="46.892980579286814" lon="15.912760030478239">
        <ele>488.9677734375</ele>
        <time>2010-03-28T11:02:58Z</time>
      </trkpt>
      <trkpt lat="46.893108319491148" lon="15.912560876458883">
        <ele>485.1224365234375</ele>
        <time>2010-03-28T11:03:16Z</time>
      </trkpt>
      <trkpt lat="46.893180068582296" lon="15.91248887591064">
        <ele>486.083740234375</ele>
        <time>2010-03-28T11:03:25Z</time>
      </trkpt>
      <trkpt lat="46.893229773268104" lon="15.912492061033845">
        <ele>485.60302734375</ele>
        <time>2010-03-28T11:03:38Z</time>
      </trkpt>
      <trkpt lat="46.893109744414687" lon="15.912221996113658">
        <ele>484.1611328125</ele>
        <time>2010-03-28T11:03:57Z</time>
      </trkpt>
      <trkpt lat="46.893157940357924" lon="15.911886468529701">
        <ele>484.1611328125</ele>
        <time>2010-03-28T11:04:17Z</time>
      </trkpt>
      <trkpt lat="46.893244525417686" lon="15.911472570151091">
        <ele>483.1998291015625</ele>
        <time>2010-03-28T11:04:40Z</time>
      </trkpt>
      <trkpt lat="46.893295990303159" lon="15.911209378391504">
        <ele>484.641845703125</ele>
        <time>2010-03-28T11:04:55Z</time>
      </trkpt>
      <trkpt lat="46.893300684168935" lon="15.911056576296687">
        <ele>485.60302734375</ele>
        <time>2010-03-28T11:05:13Z</time>
      </trkpt>
      <trkpt lat="46.893307389691472" lon="15.911045260727406">
        <ele>484.1611328125</ele>
        <time>2010-03-28T11:05:15Z</time>
      </trkpt>
      <trkpt lat="46.893461029976606" lon="15.91083194129169">
        <ele>485.60302734375</ele>
        <time>2010-03-28T11:05:34Z</time>
      </trkpt>
      <trkpt lat="46.893663117662072" lon="15.910604288801551">
        <ele>486.564453125</ele>
        <time>2010-03-28T11:05:54Z</time>
      </trkpt>
      <trkpt lat="46.893802173435688" lon="15.910430867224932">
        <ele>486.564453125</ele>
        <time>2010-03-28T11:06:09Z</time>
      </trkpt>
      <trkpt lat="46.89402705989778" lon="15.910153845325112">
        <ele>487.0450439453125</ele>
        <time>2010-03-28T11:06:33Z</time>
      </trkpt>
      <trkpt lat="46.894146837294102" lon="15.910051753744483">
        <ele>488.4871826171875</ele>
        <time>2010-03-28T11:06:48Z</time>
      </trkpt>
      <trkpt lat="46.894363593310118" lon="15.909864585846663">
        <ele>488.9677734375</ele>
        <time>2010-03-28T11:07:03Z</time>
      </trkpt>
      <trkpt lat="46.89442427828908" lon="15.909844385460019">
        <ele>488.9677734375</ele>
        <time>2010-03-28T11:07:07Z</time>
      </trkpt>
      <trkpt lat="46.894631562754512" lon="15.909802727401257">
        <ele>489.9290771484375</ele>
        <time>2010-03-28T11:07:26Z</time>
      </trkpt>
      <trkpt lat="46.894820323213935" lon="15.909736091271043">
        <ele>490.890380859375</ele>
        <time>2010-03-28T11:07:46Z</time>
      </trkpt>
      <trkpt lat="46.894863322377205" lon="15.909723686054349">
        <ele>491.8516845703125</ele>
        <time>2010-03-28T11:07:50Z</time>
      </trkpt>
      <trkpt lat="46.895042443647981" lon="15.909606255590916">
        <ele>492.81298828125</ele>
        <time>2010-03-28T11:08:09Z</time>
      </trkpt>
      <trkpt lat="46.895177140831947" lon="15.909502655267715">
        <ele>494.2550048828125</ele>
        <time>2010-03-28T11:08:22Z</time>
      </trkpt>
      <trkpt lat="46.895348466932774" lon="15.909406263381243">
        <ele>498.100341796875</ele>
        <time>2010-03-28T11:08:36Z</time>
      </trkpt>
      <trkpt lat="46.895470172166824" lon="15.909258825704455">
        <ele>499.0615234375</ele>
        <time>2010-03-28T11:08:54Z</time>
      </trkpt>
      <trkpt lat="46.895480062812567" lon="15.909228650853038">
        <ele>499.542236328125</ele>
        <time>2010-03-28T11:08:56Z</time>
      </trkpt>
      <trkpt lat="46.89556622877717" lon="15.909108957275748">
        <ele>500.5035400390625</ele>
        <time>2010-03-28T11:09:08Z</time>
      </trkpt>
      <trkpt lat="46.895710648968816" lon="15.908970572054386">
        <ele>502.90673828125</ele>
        <time>2010-03-28T11:09:26Z</time>
      </trkpt>
      <trkpt lat="46.895868228748441" lon="15.908730933442712">
        <ele>503.8681640625</ele>
        <time>2010-03-28T11:09:45Z</time>
      </trkpt>
      <trkpt lat="46.895877867937088" lon="15.908695897087455">
        <ele>504.8294677734375</ele>
        <time>2010-03-28T11:09:47Z</time>
      </trkpt>
      <trkpt lat="46.895900247618556" lon="15.908571928739548">
        <ele>503.8681640625</ele>
        <time>2010-03-28T11:09:56Z</time>
      </trkpt>
      <trkpt lat="46.895852638408542" lon="15.908248219639063">
        <ele>506.271484375</ele>
        <time>2010-03-28T11:10:17Z</time>
      </trkpt>
      <trkpt lat="46.89574996009469" lon="15.907980836927891">
        <ele>505.7908935546875</ele>
        <time>2010-03-28T11:10:35Z</time>
      </trkpt>
      <trkpt lat="46.895728753879666" lon="15.907848319038749">
        <ele>509.1553955078125</ele>
        <time>2010-03-28T11:10:44Z</time>
      </trkpt>
      <trkpt lat="46.895707799121737" lon="15.907764080911875">
        <ele>509.6361083984375</ele>
        <time>2010-03-28T11:10:54Z</time>
      </trkpt>
      <trkpt lat="46.895737890154123" lon="15.907696858048439">
        <ele>510.5972900390625</ele>
        <time>2010-03-28T11:11:12Z</time>
      </trkpt>
      <trkpt lat="46.895687598735094" lon="15.907562663778663">
        <ele>509.6361083984375</ele>
        <time>2010-03-28T11:11:33Z</time>
      </trkpt>
      <trkpt lat="46.895689442753792" lon="15.907277762889862">
        <ele>511.0780029296875</ele>
        <time>2010-03-28T11:11:52Z</time>
      </trkpt>
      <trkpt lat="46.895730933174491" lon="15.9069649502635">
        <ele>511.0780029296875</ele>
        <time>2010-03-28T11:12:12Z</time>
      </trkpt>
      <trkpt lat="46.895763287320733" lon="15.906898230314255">
        <ele>510.5972900390625</ele>
        <time>2010-03-28T11:12:27Z</time>
      </trkpt>
      <trkpt lat="46.895814416930079" lon="15.90676068328321">
        <ele>510.11669921875</ele>
        <time>2010-03-28T11:12:45Z</time>
      </trkpt>
      <trkpt lat="46.895788097754121" lon="15.906697399914265">
        <ele>510.11669921875</ele>
        <time>2010-03-28T11:12:53Z</time>
      </trkpt>
      <trkpt lat="46.895779296755791" lon="15.906698741018772">
        <ele>513.9620361328125</ele>
        <time>2010-03-28T11:12:56Z</time>
      </trkpt>
      <trkpt lat="46.895771669223905" lon="15.906698321923614">
        <ele>510.11669921875</ele>
        <time>2010-03-28T11:12:57Z</time>
      </trkpt>
      <trkpt lat="46.895776866003871" lon="15.906683485955">
        <ele>509.6361083984375</ele>
        <time>2010-03-28T11:13:26Z</time>
      </trkpt>
      <trkpt lat="46.895777955651283" lon="15.906506795436144">
        <ele>508.6746826171875</ele>
        <time>2010-03-28T11:13:41Z</time>
      </trkpt>
      <trkpt lat="46.895773597061634" lon="15.906289368867874">
        <ele>506.7520751953125</ele>
        <time>2010-03-28T11:13:58Z</time>
      </trkpt>
      <trkpt lat="46.895796479657292" lon="15.906054927036166">
        <ele>504.8294677734375</ele>
        <time>2010-03-28T11:14:15Z</time>
      </trkpt>
      <trkpt lat="46.895741578191519" lon="15.905954679474235">
        <ele>503.387451171875</ele>
        <time>2010-03-28T11:14:24Z</time>
      </trkpt>
      <trkpt lat="46.895597660914063" lon="15.905814031139016">
        <ele>500.02294921875</ele>
        <time>2010-03-28T11:14:42Z</time>
      </trkpt>
      <trkpt lat="46.895512249320745" lon="15.905683357268572">
        <ele>498.100341796875</ele>
        <time>2010-03-28T11:15:01Z</time>
      </trkpt>
      <trkpt lat="46.895478218793869" lon="15.905621498823166">
        <ele>496.6583251953125</ele>
        <time>2010-03-28T11:15:06Z</time>
      </trkpt>
      <trkpt lat="46.895412169396877" lon="15.905500380322337">
        <ele>494.735595703125</ele>
        <time>2010-03-28T11:15:16Z</time>
      </trkpt>
      <trkpt lat="46.895336732268333" lon="15.905370963737369">
        <ele>492.3323974609375</ele>
        <time>2010-03-28T11:15:27Z</time>
      </trkpt>
      <trkpt lat="46.895293816924095" lon="15.905310697853565">
        <ele>492.3323974609375</ele>
        <time>2010-03-28T11:15:48Z</time>
      </trkpt>
      <trkpt lat="46.895310999825597" lon="15.905345482751727">
        <ele>492.3323974609375</ele>
        <time>2010-03-28T11:16:04Z</time>
      </trkpt>
      <trkpt lat="46.895310832187533" lon="15.905345566570759">
        <ele>491.3709716796875</ele>
        <time>2010-03-28T11:16:10Z</time>
      </trkpt>
      <trkpt lat="46.895245956256986" lon="15.905450088903308">
        <ele>489.4483642578125</ele>
        <time>2010-03-28T11:16:22Z</time>
      </trkpt>
      <trkpt lat="46.895191054791212" lon="15.905403066426516">
        <ele>485.1224365234375</ele>
        <time>2010-03-28T11:16:29Z</time>
      </trkpt>
      <trkpt lat="46.895181918516755" lon="15.905394349247217">
        <ele>488.4871826171875</ele>
        <time>2010-03-28T11:16:30Z</time>
      </trkpt>
      <trkpt lat="46.895174793899059" lon="15.905385967344046">
        <ele>493.2935791015625</ele>
        <time>2010-03-28T11:16:31Z</time>
      </trkpt>
      <trkpt lat="46.895170016214252" lon="15.905382195487618">
        <ele>488.4871826171875</ele>
        <time>2010-03-28T11:16:32Z</time>
      </trkpt>
      <trkpt lat="46.895165992900729" lon="15.905379429459572">
        <ele>492.81298828125</ele>
        <time>2010-03-28T11:16:35Z</time>
      </trkpt>
      <trkpt lat="46.895164651796222" lon="15.905378255993128">
        <ele>492.81298828125</ele>
        <time>2010-03-28T11:16:36Z</time>
      </trkpt>
      <trkpt lat="46.895161466673017" lon="15.905374651774764">
        <ele>488.9677734375</ele>
        <time>2010-03-28T11:16:37Z</time>
      </trkpt>
      <trkpt lat="46.895156437531114" lon="15.905368868261576">
        <ele>488.9677734375</ele>
        <time>2010-03-28T11:16:38Z</time>
      </trkpt>
      <trkpt lat="46.895145792514086" lon="15.905355960130692">
        <ele>485.60302734375</ele>
        <time>2010-03-28T11:16:40Z</time>
      </trkpt>
      <trkpt lat="46.895141936838627" lon="15.905350679531693">
        <ele>488.9677734375</ele>
        <time>2010-03-28T11:16:41Z</time>
      </trkpt>
      <trkpt lat="46.895140679553151" lon="15.905348332598805">
        <ele>491.8516845703125</ele>
        <time>2010-03-28T11:16:42Z</time>
      </trkpt>
      <trkpt lat="46.895140428096056" lon="15.905347494408488">
        <ele>486.083740234375</ele>
        <time>2010-03-28T11:16:43Z</time>
      </trkpt>
      <trkpt lat="46.895140260457993" lon="15.905346237123013">
        <ele>490.890380859375</ele>
        <time>2010-03-28T11:16:44Z</time>
      </trkpt>
      <trkpt lat="46.895140092819929" lon="15.9053451474756">
        <ele>486.083740234375</ele>
        <time>2010-03-28T11:16:45Z</time>
      </trkpt>
      <trkpt lat="46.895139757543802" lon="15.905342968180776">
        <ele>490.890380859375</ele>
        <time>2010-03-28T11:16:47Z</time>
      </trkpt>
      <trkpt lat="46.895139757543802" lon="15.905341878533363">
        <ele>489.4483642578125</ele>
        <time>2010-03-28T11:16:48Z</time>
      </trkpt>
      <trkpt lat="46.89513917081058" lon="15.905337771400809">
        <ele>486.564453125</ele>
        <time>2010-03-28T11:16:52Z</time>
      </trkpt>
      <trkpt lat="46.895138416439295" lon="15.90533584356308">
        <ele>490.890380859375</ele>
        <time>2010-03-28T11:16:54Z</time>
      </trkpt>
      <trkpt lat="46.895138081163168" lon="15.905334837734699">
        <ele>488.0064697265625</ele>
        <time>2010-03-28T11:16:55Z</time>
      </trkpt>
      <trkpt lat="46.895137242972851" lon="15.905333245173097">
        <ele>492.3323974609375</ele>
        <time>2010-03-28T11:16:57Z</time>
      </trkpt>
      <trkpt lat="46.895136740058661" lon="15.905332574620843">
        <ele>492.3323974609375</ele>
        <time>2010-03-28T11:16:58Z</time>
      </trkpt>
      <trkpt lat="46.895136320963502" lon="15.905331820249557">
        <ele>488.0064697265625</ele>
        <time>2010-03-28T11:16:59Z</time>
      </trkpt>
      <trkpt lat="46.895134728401899" lon="15.905330060049891">
        <ele>490.890380859375</ele>
        <time>2010-03-28T11:17:03Z</time>
      </trkpt>
      <trkpt lat="46.895134476944804" lon="15.90532997623086">
        <ele>486.083740234375</ele>
        <time>2010-03-28T11:17:04Z</time>
      </trkpt>
      <trkpt lat="46.895134225487709" lon="15.905329892411828">
        <ele>491.8516845703125</ele>
        <time>2010-03-28T11:17:05Z</time>
      </trkpt>
      <trkpt lat="46.895134057849646" lon="15.905329892411828">
        <ele>486.083740234375</ele>
        <time>2010-03-28T11:17:06Z</time>
      </trkpt>
      <trkpt lat="46.895133974030614" lon="15.905329892411828">
        <ele>490.4097900390625</ele>
        <time>2010-03-28T11:17:07Z</time>
      </trkpt>
      <trkpt lat="46.895133974030614" lon="15.905329892411828">
        <ele>487.0450439453125</ele>
        <time>2010-03-28T11:17:08Z</time>
      </trkpt>
      <trkpt lat="46.895133974030614" lon="15.905330060049891">
        <ele>490.4097900390625</ele>
        <time>2010-03-28T11:17:10Z</time>
      </trkpt>
      <trkpt lat="46.895134057849646" lon="15.905331065878272">
        <ele>486.083740234375</ele>
        <time>2010-03-28T11:17:13Z</time>
      </trkpt>
      <trkpt lat="46.895134057849646" lon="15.905331317335367">
        <ele>489.9290771484375</ele>
        <time>2010-03-28T11:17:14Z</time>
      </trkpt>
      <trkpt lat="46.895135650411248" lon="15.905334586277604">
        <ele>486.564453125</ele>
        <time>2010-03-28T11:17:34Z</time>
      </trkpt>
      <trkpt lat="46.89513523131609" lon="15.905334334820509">
        <ele>490.890380859375</ele>
        <time>2010-03-28T11:17:37Z</time>
      </trkpt>
      <trkpt lat="46.89513523131609" lon="15.905334586277604">
        <ele>486.564453125</ele>
        <time>2010-03-28T11:17:38Z</time>
      </trkpt>
      <trkpt lat="46.895135398954153" lon="15.905335089191794">
        <ele>490.890380859375</ele>
        <time>2010-03-28T11:17:40Z</time>
      </trkpt>
      <trkpt lat="46.895135482773185" lon="15.90533534064889">
        <ele>486.564453125</ele>
        <time>2010-03-28T11:17:41Z</time>
      </trkpt>
      <trkpt lat="46.895135566592216" lon="15.905335592105985">
        <ele>487.525634765625</ele>
        <time>2010-03-28T11:17:42Z</time>
      </trkpt>
      <trkpt lat="46.895134896039963" lon="15.905331736430526">
        <ele>490.890380859375</ele>
        <time>2010-03-28T11:17:44Z</time>
      </trkpt>
      <trkpt lat="46.895134057849646" lon="15.905330646783113">
        <ele>488.0064697265625</ele>
        <time>2010-03-28T11:17:45Z</time>
      </trkpt>
      <trkpt lat="46.895128358155489" lon="15.905308267101645">
        <ele>484.1611328125</ele>
        <time>2010-03-28T11:18:01Z</time>
      </trkpt>
      <trkpt lat="46.895116623491049" lon="15.905296951532364">
        <ele>489.4483642578125</ele>
        <time>2010-03-28T11:18:03Z</time>
      </trkpt>
      <trkpt lat="46.895110420882702" lon="15.905292425304651">
        <ele>486.083740234375</ele>
        <time>2010-03-28T11:18:04Z</time>
      </trkpt>
      <trkpt lat="46.895092148333788" lon="15.905260825529695">
        <ele>488.4871826171875</ele>
        <time>2010-03-28T11:18:09Z</time>
      </trkpt>
      <trkpt lat="46.895087119191885" lon="15.9052449837327">
        <ele>487.525634765625</ele>
        <time>2010-03-28T11:18:11Z</time>
      </trkpt>
      <trkpt lat="46.895102374255657" lon="15.905133420601487">
        <ele>487.0450439453125</ele>
        <time>2010-03-28T11:18:49Z</time>
      </trkpt>
      <trkpt lat="46.895100278779864" lon="15.905137443915009">
        <ele>483.1998291015625</ele>
        <time>2010-03-28T11:18:55Z</time>
      </trkpt>
      <trkpt lat="46.895099775865674" lon="15.90513844974339">
        <ele>487.525634765625</ele>
        <time>2010-03-28T11:18:56Z</time>
      </trkpt>
      <trkpt lat="46.895098183304071" lon="15.905144149437547">
        <ele>483.680419921875</ele>
        <time>2010-03-28T11:18:59Z</time>
      </trkpt>
      <trkpt lat="46.895097764208913" lon="15.905145825818181">
        <ele>487.525634765625</ele>
        <time>2010-03-28T11:19:00Z</time>
      </trkpt>
      <trkpt lat="46.895097177475691" lon="15.905147921293974">
        <ele>490.4097900390625</ele>
        <time>2010-03-28T11:19:01Z</time>
      </trkpt>
      <trkpt lat="46.89509566873312" lon="15.905153453350067">
        <ele>484.641845703125</ele>
        <time>2010-03-28T11:19:04Z</time>
      </trkpt>
      <trkpt lat="46.895094579085708" lon="15.905157560482621">
        <ele>488.9677734375</ele>
        <time>2010-03-28T11:19:06Z</time>
      </trkpt>
      <trkpt lat="46.895093992352486" lon="15.905159488320351">
        <ele>485.1224365234375</ele>
        <time>2010-03-28T11:19:07Z</time>
      </trkpt>
      <trkpt lat="46.895093573257327" lon="15.905161332339048">
        <ele>491.3709716796875</ele>
        <time>2010-03-28T11:19:08Z</time>
      </trkpt>
      <trkpt lat="46.895093154162169" lon="15.90516334399581">
        <ele>488.0064697265625</ele>
        <time>2010-03-28T11:19:09Z</time>
      </trkpt>
      <trkpt lat="46.895091980695724" lon="15.905168037861586">
        <ele>484.641845703125</ele>
        <time>2010-03-28T11:19:11Z</time>
      </trkpt>
      <trkpt lat="46.895091142505407" lon="15.905172480270267">
        <ele>490.4097900390625</ele>
        <time>2010-03-28T11:19:13Z</time>
      </trkpt>
      <trkpt lat="46.895090052857995" lon="15.905178850516677">
        <ele>484.641845703125</ele>
        <time>2010-03-28T11:19:16Z</time>
      </trkpt>
      <trkpt lat="46.895089717581868" lon="15.905180862173438">
        <ele>488.0064697265625</ele>
        <time>2010-03-28T11:19:17Z</time>
      </trkpt>
      <trkpt lat="46.894957451149821" lon="15.905166696757078">
        <ele>485.60302734375</ele>
        <time>2010-03-28T11:19:37Z</time>
      </trkpt>
      <trkpt lat="46.894713370129466" lon="15.905091846361756">
        <ele>484.1611328125</ele>
        <time>2010-03-28T11:19:53Z</time>
      </trkpt>
      <trkpt lat="46.894535338506103" lon="15.905061336234212">
        <ele>482.71923828125</ele>
        <time>2010-03-28T11:20:06Z</time>
      </trkpt>
      <trkpt lat="46.894463254138827" lon="15.904970727860928">
        <ele>479.3544921875</ele>
        <time>2010-03-28T11:20:16Z</time>
      </trkpt>
      <trkpt lat="46.894352361559868" lon="15.904792277142406">
        <ele>476.4705810546875</ele>
        <time>2010-03-28T11:20:31Z</time>
      </trkpt>
      <trkpt lat="46.894242977723479" lon="15.904727736487985">
        <ele>473.586669921875</ele>
        <time>2010-03-28T11:20:42Z</time>
      </trkpt>
      <trkpt lat="46.89407735131681" lon="15.904640899971128">
        <ele>470.221923828125</ele>
        <time>2010-03-28T11:20:55Z</time>
      </trkpt>
      <trkpt lat="46.894031669944525" lon="15.90454425662756">
        <ele>467.338134765625</ele>
        <time>2010-03-28T11:21:09Z</time>
      </trkpt>
      <trkpt lat="46.893889596685767" lon="15.904456749558449">
        <ele>464.4541015625</ele>
        <time>2010-03-28T11:21:25Z</time>
      </trkpt>
      <trkpt lat="46.89381449483335" lon="15.904391119256616">
        <ele>461.5701904296875</ele>
        <time>2010-03-28T11:21:37Z</time>
      </trkpt>
      <trkpt lat="46.89369329251349" lon="15.904383575543761">
        <ele>460.128173828125</ele>
        <time>2010-03-28T11:21:48Z</time>
      </trkpt>
      <trkpt lat="46.893670745193958" lon="15.904328590258956">
        <ele>458.6861572265625</ele>
        <time>2010-03-28T11:21:54Z</time>
      </trkpt>
      <trkpt lat="46.893526827916503" lon="15.904222894459963">
        <ele>456.282958984375</ele>
        <time>2010-03-28T11:22:09Z</time>
      </trkpt>
      <trkpt lat="46.893509645015001" lon="15.904214847832918">
        <ele>456.282958984375</ele>
        <time>2010-03-28T11:22:10Z</time>
      </trkpt>
      <trkpt lat="46.893428340554237" lon="15.904062129557133">
        <ele>454.3602294921875</ele>
        <time>2010-03-28T11:22:25Z</time>
      </trkpt>
      <trkpt lat="46.893287943676114" lon="15.904033547267318">
        <ele>452.918212890625</ele>
        <time>2010-03-28T11:22:38Z</time>
      </trkpt>
      <trkpt lat="46.893177554011345" lon="15.904013849794865">
        <ele>450.99560546875</ele>
        <time>2010-03-28T11:22:51Z</time>
      </trkpt>
      <trkpt lat="46.892987620085478" lon="15.903991973027587">
        <ele>450.99560546875</ele>
        <time>2010-03-28T11:23:05Z</time>
      </trkpt>
      <trkpt lat="46.892860969528556" lon="15.903826346620917">
        <ele>450.5150146484375</ele>
        <time>2010-03-28T11:23:18Z</time>
      </trkpt>
      <trkpt lat="46.892831549048424" lon="15.903712688013911">
        <ele>450.034423828125</ele>
        <time>2010-03-28T11:23:25Z</time>
      </trkpt>
      <trkpt lat="46.892792154103518" lon="15.903549157083035">
        <ele>448.11181640625</ele>
        <time>2010-03-28T11:23:36Z</time>
      </trkpt>
      <trkpt lat="46.892707161605358" lon="15.903493920341134">
        <ele>446.669677734375</ele>
        <time>2010-03-28T11:23:43Z</time>
      </trkpt>
      <trkpt lat="46.892598532140255" lon="15.903442455455661">
        <ele>444.7470703125</ele>
        <time>2010-03-28T11:24:00Z</time>
      </trkpt>
      <trkpt lat="46.892474899068475" lon="15.903385877609253">
        <ele>442.3438720703125</ele>
        <time>2010-03-28T11:24:18Z</time>
      </trkpt>
      <trkpt lat="46.892322180792689" lon="15.903353523463011">
        <ele>438.017822265625</ele>
        <time>2010-03-28T11:24:29Z</time>
      </trkpt>
      <trkpt lat="46.892150435596704" lon="15.903219245374203">
        <ele>436.09521484375</ele>
        <time>2010-03-28T11:24:46Z</time>
      </trkpt>
      <trkpt lat="46.892151776701212" lon="15.903152944520116">
        <ele>436.09521484375</ele>
        <time>2010-03-28T11:24:56Z</time>
      </trkpt>
      <trkpt lat="46.89208229072392" lon="15.903121847659349">
        <ele>435.614501953125</ele>
        <time>2010-03-28T11:25:13Z</time>
      </trkpt>
      <trkpt lat="46.892018839716911" lon="15.90311111882329">
        <ele>433.69189453125</ele>
        <time>2010-03-28T11:25:28Z</time>
      </trkpt>
      <trkpt lat="46.891797389835119" lon="15.9030173253268">
        <ele>432.25</ele>
        <time>2010-03-28T11:25:43Z</time>
      </trkpt>
      <trkpt lat="46.891722958534956" lon="15.902970721945167">
        <ele>431.28857421875</ele>
        <time>2010-03-28T11:25:49Z</time>
      </trkpt>
      <trkpt lat="46.891686329618096" lon="15.902920346707106">
        <ele>430.3272705078125</ele>
        <time>2010-03-28T11:26:04Z</time>
      </trkpt>
      <trkpt lat="46.891541071236134" lon="15.902831833809614">
        <ele>427.443359375</ele>
        <time>2010-03-28T11:26:22Z</time>
      </trkpt>
      <trkpt lat="46.891354070976377" lon="15.902757989242673">
        <ele>426.4820556640625</ele>
        <time>2010-03-28T11:26:36Z</time>
      </trkpt>
      <trkpt lat="46.891292883083224" lon="15.902693029493093">
        <ele>426.9627685546875</ele>
        <time>2010-03-28T11:26:51Z</time>
      </trkpt>
      <trkpt lat="46.891186768189073" lon="15.902633937075734">
        <ele>426.0013427734375</ele>
        <time>2010-03-28T11:27:27Z</time>
      </trkpt>
      <trkpt lat="46.890979399904609" lon="15.902550369501114">
        <ele>425.520751953125</ele>
        <time>2010-03-28T11:27:42Z</time>
      </trkpt>
      <trkpt lat="46.890852078795433" lon="15.90247786603868">
        <ele>422.63671875</ele>
        <time>2010-03-28T11:27:54Z</time>
      </trkpt>
      <trkpt lat="46.890691230073571" lon="15.902328416705132">
        <ele>423.117431640625</ele>
        <time>2010-03-28T11:28:09Z</time>
      </trkpt>
      <trkpt lat="46.890615122392774" lon="15.902165053412318">
        <ele>422.63671875</ele>
        <time>2010-03-28T11:28:22Z</time>
      </trkpt>
      <trkpt lat="46.89049081876874" lon="15.90202247723937">
        <ele>421.19482421875</ele>
        <time>2010-03-28T11:28:37Z</time>
      </trkpt>
      <trkpt lat="46.890395767986774" lon="15.901916865259409">
        <ele>420.714111328125</ele>
        <time>2010-03-28T11:28:51Z</time>
      </trkpt>
      <trkpt lat="46.8902856297791" lon="15.901779234409332">
        <ele>421.19482421875</ele>
        <time>2010-03-28T11:29:05Z</time>
      </trkpt>
      <trkpt lat="46.890222262591124" lon="15.901562226936221">
        <ele>418.310791015625</ele>
        <time>2010-03-28T11:29:22Z</time>
      </trkpt>
      <trkpt lat="46.89009846188128" lon="15.901319989934564">
        <ele>415.907470703125</ele>
        <time>2010-03-28T11:29:41Z</time>
      </trkpt>
      <trkpt lat="46.889973236247897" lon="15.901106167584658">
        <ele>412.5428466796875</ele>
        <time>2010-03-28T11:29:59Z</time>
      </trkpt>
      <trkpt lat="46.889820853248239" lon="15.901039447635412">
        <ele>410.1396484375</ele>
        <time>2010-03-28T11:30:16Z</time>
      </trkpt>
      <trkpt lat="46.88970903865993" lon="15.901004746556282">
        <ele>407.736328125</ele>
        <time>2010-03-28T11:30:30Z</time>
      </trkpt>
      <trkpt lat="46.88973787240684" lon="15.901154447346926">
        <ele>404.852294921875</ele>
        <time>2010-03-28T11:30:46Z</time>
      </trkpt>
      <trkpt lat="46.889756731688976" lon="15.901312194764614">
        <ele>404.852294921875</ele>
        <time>2010-03-28T11:30:59Z</time>
      </trkpt>
      <trkpt lat="46.889719348400831" lon="15.901489723473787">
        <ele>403.410400390625</ele>
        <time>2010-03-28T11:31:15Z</time>
      </trkpt>
      <trkpt lat="46.889703338965774" lon="15.901647722348571">
        <ele>400.0458984375</ele>
        <time>2010-03-28T11:31:27Z</time>
      </trkpt>
      <trkpt lat="46.889567887410522" lon="15.901752579957247">
        <ele>398.603759765625</ele>
        <time>2010-03-28T11:31:41Z</time>
      </trkpt>
      <trkpt lat="46.889327997341752" lon="15.901791220530868">
        <ele>397.1617431640625</ele>
        <time>2010-03-28T11:31:58Z</time>
      </trkpt>
      <trkpt lat="46.889248285442591" lon="15.901816450059414">
        <ele>395.7198486328125</ele>
        <time>2010-03-28T11:32:07Z</time>
      </trkpt>
      <trkpt lat="46.889143595471978" lon="15.901844948530197">
        <ele>393.7972412109375</ele>
        <time>2010-03-28T11:32:19Z</time>
      </trkpt>
      <trkpt lat="46.889049969613552" lon="15.901834554970264">
        <ele>391.87451171875</ele>
        <time>2010-03-28T11:32:31Z</time>
      </trkpt>
      <trkpt lat="46.888966988772154" lon="15.901834219694138">
        <ele>390.9132080078125</ele>
        <time>2010-03-28T11:32:45Z</time>
      </trkpt>
      <trkpt lat="46.88890621997416" lon="15.901873363181949">
        <ele>387.548583984375</ele>
        <time>2010-03-28T11:33:02Z</time>
      </trkpt>
      <trkpt lat="46.888717375695705" lon="15.901884259656072">
        <ele>387.548583984375</ele>
        <time>2010-03-28T11:33:21Z</time>
      </trkpt>
      <trkpt lat="46.888607824221253" lon="15.901826424524188">
        <ele>386.58740234375</ele>
        <time>2010-03-28T11:33:37Z</time>
      </trkpt>
      <trkpt lat="46.888569686561823" lon="15.901821982115507">
        <ele>386.58740234375</ele>
        <time>2010-03-28T11:33:43Z</time>
      </trkpt>
      <trkpt lat="46.888431049883366" lon="15.901799937710166">
        <ele>385.6259765625</ele>
        <time>2010-03-28T11:33:53Z</time>
      </trkpt>
      <trkpt lat="46.888278583064675" lon="15.901748975738883">
        <ele>385.1453857421875</ele>
        <time>2010-03-28T11:34:05Z</time>
      </trkpt>
      <trkpt lat="46.888239691033959" lon="15.901710838079453">
        <ele>384.664794921875</ele>
        <time>2010-03-28T11:34:11Z</time>
      </trkpt>
      <trkpt lat="46.888112034648657" lon="15.901644872501493">
        <ele>384.18408203125</ele>
        <time>2010-03-28T11:34:21Z</time>
      </trkpt>
      <trkpt lat="46.887935930863023" lon="15.901536997407675">
        <ele>381.7806396484375</ele>
        <time>2010-03-28T11:34:34Z</time>
      </trkpt>
      <trkpt lat="46.887863427400589" lon="15.901454770937562">
        <ele>380.3387451171875</ele>
        <time>2010-03-28T11:34:45Z</time>
      </trkpt>
      <trkpt lat="46.887811291962862" lon="15.901401378214359">
        <ele>378.4161376953125</ele>
        <time>2010-03-28T11:34:56Z</time>
      </trkpt>
      <trkpt lat="46.887781033292413" lon="15.901391990482807">
        <ele>377.9354248046875</ele>
        <time>2010-03-28T11:35:03Z</time>
      </trkpt>
      <trkpt lat="46.887794947251678" lon="15.901347482576966">
        <ele>381.7806396484375</ele>
        <time>2010-03-28T11:35:07Z</time>
      </trkpt>
      <trkpt lat="46.88779947347939" lon="15.90133935213089">
        <ele>376.4935302734375</ele>
        <time>2010-03-28T11:35:08Z</time>
      </trkpt>
      <trkpt lat="46.887803077697754" lon="15.901332143694162">
        <ele>379.8580322265625</ele>
        <time>2010-03-28T11:35:09Z</time>
      </trkpt>
      <trkpt lat="46.887684892863035" lon="15.901275984942913">
        <ele>378.4161376953125</ele>
        <time>2010-03-28T11:35:52Z</time>
      </trkpt>
      <trkpt lat="46.887566121295094" lon="15.90122795663774">
        <ele>376.9742431640625</ele>
        <time>2010-03-28T11:36:05Z</time>
      </trkpt>
      <trkpt lat="46.887495964765549" lon="15.901211444288492">
        <ele>375.051513671875</ele>
        <time>2010-03-28T11:36:16Z</time>
      </trkpt>
      <trkpt lat="46.887397477403283" lon="15.901185041293502">
        <ele>373.6094970703125</ele>
        <time>2010-03-28T11:36:27Z</time>
      </trkpt>
      <trkpt lat="46.887245681136847" lon="15.901140449568629">
        <ele>371.206298828125</ele>
        <time>2010-03-28T11:36:43Z</time>
      </trkpt>
      <trkpt lat="46.887187426909804" lon="15.901198284700513">
        <ele>368.802978515625</ele>
        <time>2010-03-28T11:36:55Z</time>
      </trkpt>
      <trkpt lat="46.887078043073416" lon="15.901272296905518">
        <ele>367.3609619140625</ele>
        <time>2010-03-28T11:37:06Z</time>
      </trkpt>
      <trkpt lat="46.887037893757224" lon="15.901222340762615">
        <ele>367.3609619140625</ele>
        <time>2010-03-28T11:37:17Z</time>
      </trkpt>
      <trkpt lat="46.887046275660396" lon="15.901194848120213">
        <ele>365.9189453125</ele>
        <time>2010-03-28T11:37:19Z</time>
      </trkpt>
      <trkpt lat="46.886997492983937" lon="15.901231057941914">
        <ele>362.07373046875</ele>
        <time>2010-03-28T11:37:30Z</time>
      </trkpt>
      <trkpt lat="46.886929851025343" lon="15.901301465928555">
        <ele>362.07373046875</ele>
        <time>2010-03-28T11:37:39Z</time>
      </trkpt>
      <trkpt lat="46.886810660362244" lon="15.901429373770952">
        <ele>359.67041015625</ele>
        <time>2010-03-28T11:37:54Z</time>
      </trkpt>
      <trkpt lat="46.886758776381612" lon="15.901601873338223">
        <ele>357.26708984375</ele>
        <time>2010-03-28T11:38:08Z</time>
      </trkpt>
      <trkpt lat="46.886695995926857" lon="15.901716286316514">
        <ele>356.786376953125</ele>
        <time>2010-03-28T11:38:19Z</time>
      </trkpt>
      <trkpt lat="46.88662868924439" lon="15.901775043457747">
        <ele>355.344482421875</ele>
        <time>2010-03-28T11:38:25Z</time>
      </trkpt>
      <trkpt lat="46.88644646666944" lon="15.901903035119176">
        <ele>354.3831787109375</ele>
        <time>2010-03-28T11:38:40Z</time>
      </trkpt>
      <trkpt lat="46.886343955993652" lon="15.901986267417669">
        <ele>353.902587890625</ele>
        <time>2010-03-28T11:38:51Z</time>
      </trkpt>
      <trkpt lat="46.886247480288148" lon="15.902015268802643">
        <ele>353.421875</ele>
        <time>2010-03-28T11:39:01Z</time>
      </trkpt>
      <trkpt lat="46.88619039952755" lon="15.902081485837698">
        <ele>351.9798583984375</ele>
        <time>2010-03-28T11:39:18Z</time>
      </trkpt>
      <trkpt lat="46.886140359565616" lon="15.902178129181266">
        <ele>351.4991455078125</ele>
        <time>2010-03-28T11:39:28Z</time>
      </trkpt>
      <trkpt lat="46.886076657101512" lon="15.902278628200293">
        <ele>350.0572509765625</ele>
        <time>2010-03-28T11:39:41Z</time>
      </trkpt>
      <trkpt lat="46.885998453944921" lon="15.902385581284761">
        <ele>348.615234375</ele>
        <time>2010-03-28T11:39:52Z</time>
      </trkpt>
      <trkpt lat="46.885942798107862" lon="15.902550034224987">
        <ele>345.2506103515625</ele>
        <time>2010-03-28T11:40:05Z</time>
      </trkpt>
      <trkpt lat="46.88588404096663" lon="15.90260049328208">
        <ele>343.80859375</ele>
        <time>2010-03-28T11:40:17Z</time>
      </trkpt>
      <trkpt lat="46.885854955762625" lon="15.902591021731496">
        <ele>343.80859375</ele>
        <time>2010-03-28T11:40:19Z</time>
      </trkpt>
      <trkpt lat="46.885799551382661" lon="15.902465879917145">
        <ele>342.36669921875</ele>
        <time>2010-03-28T11:40:31Z</time>
      </trkpt>
      <trkpt lat="46.885668290778995" lon="15.902359178289771">
        <ele>340.444091796875</ele>
        <time>2010-03-28T11:40:45Z</time>
      </trkpt>
      <trkpt lat="46.885562427341938" lon="15.902246776968241">
        <ele>339.482666015625</ele>
        <time>2010-03-28T11:40:57Z</time>
      </trkpt>
      <trkpt lat="46.885483218356967" lon="15.902194641530514">
        <ele>339.96337890625</ele>
        <time>2010-03-28T11:41:51Z</time>
      </trkpt>
      <trkpt lat="46.885429825633764" lon="15.902169244363904">
        <ele>336.1181640625</ele>
        <time>2010-03-28T11:42:04Z</time>
      </trkpt>
      <trkpt lat="46.885458072647452" lon="15.902049550786614">
        <ele>335.15673828125</ele>
        <time>2010-03-28T11:42:19Z</time>
      </trkpt>
      <trkpt lat="46.885459749028087" lon="15.901924995705485">
        <ele>336.598876953125</ele>
        <time>2010-03-28T11:43:01Z</time>
      </trkpt>
      <trkpt lat="46.885397974401712" lon="15.901937820017338">
        <ele>333.234130859375</ele>
        <time>2010-03-28T11:43:30Z</time>
      </trkpt>
      <trkpt lat="46.885391855612397" lon="15.901931030675769">
        <ele>333.7147216796875</ele>
        <time>2010-03-28T11:43:31Z</time>
      </trkpt>
      <trkpt lat="46.885335948318243" lon="15.901819467544556">
        <ele>331.3115234375</ele>
        <time>2010-03-28T11:43:45Z</time>
      </trkpt>
      <trkpt lat="46.885299738496542" lon="15.901552923023701">
        <ele>329.388916015625</ele>
        <time>2010-03-28T11:44:00Z</time>
      </trkpt>
      <trkpt lat="46.885280627757311" lon="15.901536075398326">
        <ele>328.9083251953125</ele>
        <time>2010-03-28T11:44:02Z</time>
      </trkpt>
      <trkpt lat="46.885177195072174" lon="15.901366844773293">
        <ele>326.5048828125</ele>
        <time>2010-03-28T11:44:19Z</time>
      </trkpt>
      <trkpt lat="46.885152133181691" lon="15.90127095580101">
        <ele>326.024169921875</ele>
        <time>2010-03-28T11:44:29Z</time>
      </trkpt>
      <trkpt lat="46.885124053806067" lon="15.901118069887161">
        <ele>323.140380859375</ele>
        <time>2010-03-28T11:44:42Z</time>
      </trkpt>
      <trkpt lat="46.885100668296218" lon="15.901112454012036">
        <ele>322.65966796875</ele>
        <time>2010-03-28T11:44:44Z</time>
      </trkpt>
      <trkpt lat="46.885079126805067" lon="15.900934338569641">
        <ele>320.737060546875</ele>
        <time>2010-03-28T11:45:00Z</time>
      </trkpt>
      <trkpt lat="46.885185828432441" lon="15.90078866109252">
        <ele>317.85302734375</ele>
        <time>2010-03-28T11:45:14Z</time>
      </trkpt>
      <trkpt lat="46.885249195620418" lon="15.900590429082513">
        <ele>316.8917236328125</ele>
        <time>2010-03-28T11:45:28Z</time>
      </trkpt>
      <trkpt lat="46.885223966091871" lon="15.900406530126929">
        <ele>316.8917236328125</ele>
        <time>2010-03-28T11:45:40Z</time>
      </trkpt>
      <trkpt lat="46.88523955643177" lon="15.900266384705901">
        <ele>316.4110107421875</ele>
        <time>2010-03-28T11:45:50Z</time>
      </trkpt>
      <trkpt lat="46.885257577523589" lon="15.900091119110584">
        <ele>316.4110107421875</ele>
        <time>2010-03-28T11:46:02Z</time>
      </trkpt>
      <trkpt lat="46.88528842292726" lon="15.900019034743309">
        <ele>316.8917236328125</ele>
        <time>2010-03-28T11:46:06Z</time>
      </trkpt>
      <trkpt lat="46.88529864884913" lon="15.899834297597408">
        <ele>315.930419921875</ele>
        <time>2010-03-28T11:46:19Z</time>
      </trkpt>
      <trkpt lat="46.885246764868498" lon="15.899720890447497">
        <ele>314.4884033203125</ele>
        <time>2010-03-28T11:46:30Z</time>
      </trkpt>
      <trkpt lat="46.885191276669502" lon="15.899667665362358">
        <ele>314.9691162109375</ele>
        <time>2010-03-28T11:46:49Z</time>
      </trkpt>
      <trkpt lat="46.885154396295547" lon="15.899588791653514">
        <ele>313.5272216796875</ele>
        <time>2010-03-28T11:47:06Z</time>
      </trkpt>
      <trkpt lat="46.885171663016081" lon="15.899377735331655">
        <ele>310.1624755859375</ele>
        <time>2010-03-28T11:47:22Z</time>
      </trkpt>
      <trkpt lat="46.885143164545298" lon="15.89933205395937">
        <ele>309.201171875</ele>
        <time>2010-03-28T11:47:27Z</time>
      </trkpt>
      <trkpt lat="46.885089185088873" lon="15.899266423657537">
        <ele>308.2398681640625</ele>
        <time>2010-03-28T11:47:34Z</time>
      </trkpt>
      <trkpt lat="46.884957337751985" lon="15.899086967110634">
        <ele>304.875244140625</ele>
        <time>2010-03-28T11:47:52Z</time>
      </trkpt>
      <trkpt lat="46.884918194264174" lon="15.899054361507297">
        <ele>304.3946533203125</ele>
        <time>2010-03-28T11:47:58Z</time>
      </trkpt>
      <trkpt lat="46.884713424369693" lon="15.899341693148017">
        <ele>302.9525146484375</ele>
        <time>2010-03-28T11:48:22Z</time>
      </trkpt>
      <trkpt lat="46.884687524288893" lon="15.899379663169384">
        <ele>301.9913330078125</ele>
        <time>2010-03-28T11:48:25Z</time>
      </trkpt>
      <trkpt lat="46.884511923417449" lon="15.899760453030467">
        <ele>302.471923828125</ele>
        <time>2010-03-28T11:48:51Z</time>
      </trkpt>
      <trkpt lat="46.884439419955015" lon="15.899982824921608">
        <ele>305.35595703125</ele>
        <time>2010-03-28T11:49:05Z</time>
      </trkpt>
      <trkpt lat="46.884434977546334" lon="15.899998331442475">
        <ele>304.875244140625</ele>
        <time>2010-03-28T11:49:06Z</time>
      </trkpt>
      <trkpt lat="46.884364988654852" lon="15.900291949510574">
        <ele>308.2398681640625</ele>
        <time>2010-03-28T11:49:25Z</time>
      </trkpt>
      <trkpt lat="46.884278152137995" lon="15.900527816265821">
        <ele>311.6044921875</ele>
        <time>2010-03-28T11:49:41Z</time>
      </trkpt>
      <trkpt lat="46.884268093854189" lon="15.900573581457138">
        <ele>308.720458984375</ele>
        <time>2010-03-28T11:49:44Z</time>
      </trkpt>
      <trkpt lat="46.884114872664213" lon="15.90084046125412">
        <ele>308.2398681640625</ele>
        <time>2010-03-28T11:50:04Z</time>
      </trkpt>
      <trkpt lat="46.883858051151037" lon="15.90115075930953">
        <ele>306.3172607421875</ele>
        <time>2010-03-28T11:50:30Z</time>
      </trkpt>
      <trkpt lat="46.883613718673587" lon="15.901346979662776">
        <ele>307.75927734375</ele>
        <time>2010-03-28T11:50:52Z</time>
      </trkpt>
      <trkpt lat="46.883413139730692" lon="15.901561640202999">
        <ele>310.1624755859375</ele>
        <time>2010-03-28T11:51:13Z</time>
      </trkpt>
      <trkpt lat="46.883286237716675" lon="15.901817958801985">
        <ele>311.6044921875</ele>
        <time>2010-03-28T11:51:33Z</time>
      </trkpt>
      <trkpt lat="46.883144751191139" lon="15.902026919648051">
        <ele>312.085205078125</ele>
        <time>2010-03-28T11:51:53Z</time>
      </trkpt>
      <trkpt lat="46.883016675710678" lon="15.902141751721501">
        <ele>313.5272216796875</ele>
        <time>2010-03-28T11:52:11Z</time>
      </trkpt>
      <trkpt lat="46.882837051525712" lon="15.902237389236689">
        <ele>315.4498291015625</ele>
        <time>2010-03-28T11:52:27Z</time>
      </trkpt>
      <trkpt lat="46.88262389972806" lon="15.902369320392609">
        <ele>319.2950439453125</ele>
        <time>2010-03-28T11:52:50Z</time>
      </trkpt>
      <trkpt lat="46.882593641057611" lon="15.902401758357882">
        <ele>320.25634765625</ele>
        <time>2010-03-28T11:52:54Z</time>
      </trkpt>
      <trkpt lat="46.882547289133072" lon="15.902444673702121">
        <ele>321.6983642578125</ele>
        <time>2010-03-28T11:52:59Z</time>
      </trkpt>
      <trkpt lat="46.882376968860626" lon="15.902638882398605">
        <ele>324.582275390625</ele>
        <time>2010-03-28T11:53:19Z</time>
      </trkpt>
      <trkpt lat="46.882309243083" lon="15.902846166864038">
        <ele>324.582275390625</ele>
        <time>2010-03-28T11:53:36Z</time>
      </trkpt>
      <trkpt lat="46.882247636094689" lon="15.902968794107437">
        <ele>325.06298828125</ele>
        <time>2010-03-28T11:53:54Z</time>
      </trkpt>
      <trkpt lat="46.882177228108048" lon="15.903080943971872">
        <ele>326.5048828125</ele>
        <time>2010-03-28T11:54:04Z</time>
      </trkpt>
      <trkpt lat="46.882144873961806" lon="15.903113717213273">
        <ele>325.5435791015625</ele>
        <time>2010-03-28T11:54:18Z</time>
      </trkpt>
      <trkpt lat="46.882163397967815" lon="15.903120171278715">
        <ele>325.5435791015625</ele>
        <time>2010-03-28T11:54:23Z</time>
      </trkpt>
      <trkpt lat="46.8822349794209" lon="15.903180856257677">
        <ele>326.5048828125</ele>
        <time>2010-03-28T11:54:38Z</time>
      </trkpt>
      <trkpt lat="46.882214527577162" lon="15.903153279796243">
        <ele>324.582275390625</ele>
        <time>2010-03-28T11:54:42Z</time>
      </trkpt>
      <trkpt lat="46.881936499848962" lon="15.903206253424287">
        <ele>324.582275390625</ele>
        <time>2010-03-28T11:55:05Z</time>
      </trkpt>
      <trkpt lat="46.881628716364503" lon="15.903345476835966">
        <ele>322.178955078125</ele>
        <time>2010-03-28T11:55:32Z</time>
      </trkpt>
      <trkpt lat="46.881500137969851" lon="15.903414376080036">
        <ele>322.65966796875</ele>
        <time>2010-03-28T11:55:46Z</time>
      </trkpt>
      <trkpt lat="46.881244154646993" lon="15.903532560914755">
        <ele>321.6983642578125</ele>
        <time>2010-03-28T11:56:08Z</time>
      </trkpt>
      <trkpt lat="46.881050616502762" lon="15.90375903993845">
        <ele>321.2177734375</ele>
        <time>2010-03-28T11:56:30Z</time>
      </trkpt>
      <trkpt lat="46.880986578762531" lon="15.904089035466313">
        <ele>321.2177734375</ele>
        <time>2010-03-28T11:56:51Z</time>
      </trkpt>
      <trkpt lat="46.880808379501104" lon="15.904228845611215">
        <ele>318.3336181640625</ele>
        <time>2010-03-28T11:57:09Z</time>
      </trkpt>
      <trkpt lat="46.880615763366222" lon="15.904369577765465">
        <ele>314.9691162109375</ele>
        <time>2010-03-28T11:57:29Z</time>
      </trkpt>
      <trkpt lat="46.88048617914319" lon="15.904459767043591">
        <ele>313.0465087890625</ele>
        <time>2010-03-28T11:57:42Z</time>
      </trkpt>
      <trkpt lat="46.880265818908811" lon="15.904617849737406">
        <ele>309.681884765625</ele>
        <time>2010-03-28T11:58:04Z</time>
      </trkpt>
      <trkpt lat="46.880057696253061" lon="15.904588764533401">
        <ele>308.2398681640625</ele>
        <time>2010-03-28T11:58:25Z</time>
      </trkpt>
      <trkpt lat="46.879957616329193" lon="15.904653975740075">
        <ele>305.35595703125</ele>
        <time>2010-03-28T11:58:38Z</time>
      </trkpt>
      <trkpt lat="46.879911851137877" lon="15.904748858883977">
        <ele>304.3946533203125</ele>
        <time>2010-03-28T11:58:49Z</time>
      </trkpt>
      <trkpt lat="46.87984605319798" lon="15.904930830001831">
        <ele>301.5106201171875</ele>
        <time>2010-03-28T11:59:03Z</time>
      </trkpt>
      <trkpt lat="46.879764329642057" lon="15.905134677886963">
        <ele>299.5880126953125</ele>
        <time>2010-03-28T11:59:21Z</time>
      </trkpt>
      <trkpt lat="46.879656622186303" lon="15.905392589047551">
        <ele>296.2235107421875</ele>
        <time>2010-03-28T11:59:39Z</time>
      </trkpt>
      <trkpt lat="46.879510777071118" lon="15.905689056962729">
        <ele>293.33935546875</ele>
        <time>2010-03-28T12:00:00Z</time>
      </trkpt>
      <trkpt lat="46.879331823438406" lon="15.90583817102015">
        <ele>290.9361572265625</ele>
        <time>2010-03-28T12:00:19Z</time>
      </trkpt>
      <trkpt lat="46.879326459020376" lon="15.905918553471565">
        <ele>290.45556640625</ele>
        <time>2010-03-28T12:00:24Z</time>
      </trkpt>
      <trkpt lat="46.879241466522217" lon="15.906194821000099">
        <ele>290.45556640625</ele>
        <time>2010-03-28T12:00:43Z</time>
      </trkpt>
      <trkpt lat="46.879179272800684" lon="15.906343851238489">
        <ele>289.494140625</ele>
        <time>2010-03-28T12:00:57Z</time>
      </trkpt>
      <trkpt lat="46.879058824852109" lon="15.906529258936644">
        <ele>290.45556640625</ele>
        <time>2010-03-28T12:01:11Z</time>
      </trkpt>
      <trkpt lat="46.878952039405704" lon="15.90683838352561">
        <ele>289.494140625</ele>
        <time>2010-03-28T12:01:28Z</time>
      </trkpt>
      <trkpt lat="46.878837123513222" lon="15.907147424295545">
        <ele>290.9361572265625</ele>
        <time>2010-03-28T12:01:47Z</time>
      </trkpt>
      <trkpt lat="46.878712149336934" lon="15.907449591904879">
        <ele>291.8974609375</ele>
        <time>2010-03-28T12:02:07Z</time>
      </trkpt>
      <trkpt lat="46.878571584820747" lon="15.907670957967639">
        <ele>294.30078125</ele>
        <time>2010-03-28T12:02:25Z</time>
      </trkpt>
      <trkpt lat="46.878572590649128" lon="15.907731391489506">
        <ele>294.30078125</ele>
        <time>2010-03-28T12:02:36Z</time>
      </trkpt>
      <trkpt lat="46.878552976995707" lon="15.907766344025731">
        <ele>295.261962890625</ele>
        <time>2010-03-28T12:02:39Z</time>
      </trkpt>
      <trkpt lat="46.878457674756646" lon="15.907860137522221">
        <ele>295.74267578125</ele>
        <time>2010-03-28T12:02:52Z</time>
      </trkpt>
      <trkpt lat="46.878264723345637" lon="15.90805166400969">
        <ele>297.1846923828125</ele>
        <time>2010-03-28T12:03:13Z</time>
      </trkpt>
      <trkpt lat="46.878175958991051" lon="15.908127687871456">
        <ele>300.0687255859375</ele>
        <time>2010-03-28T12:03:22Z</time>
      </trkpt>
      <trkpt lat="46.878106724470854" lon="15.908177392557263">
        <ele>301.5106201171875</ele>
        <time>2010-03-28T12:03:29Z</time>
      </trkpt>
      <trkpt lat="46.877917628735304" lon="15.908347964286804">
        <ele>301.5106201171875</ele>
        <time>2010-03-28T12:03:47Z</time>
      </trkpt>
      <trkpt lat="46.877791732549667" lon="15.908501017838717">
        <ele>303.4332275390625</ele>
        <time>2010-03-28T12:04:01Z</time>
      </trkpt>
      <trkpt lat="46.877638092264533" lon="15.908662956207991">
        <ele>305.35595703125</ele>
        <time>2010-03-28T12:04:17Z</time>
      </trkpt>
      <trkpt lat="46.877559637650847" lon="15.908741075545549">
        <ele>306.7978515625</ele>
        <time>2010-03-28T12:04:29Z</time>
      </trkpt>
      <trkpt lat="46.87741857022047" lon="15.908873844891787">
        <ele>308.2398681640625</ele>
        <time>2010-03-28T12:04:46Z</time>
      </trkpt>
      <trkpt lat="46.87735989689827" lon="15.908910725265741">
        <ele>308.2398681640625</ele>
        <time>2010-03-28T12:04:51Z</time>
      </trkpt>
      <trkpt lat="46.877162419259548" lon="15.908877030014992">
        <ele>311.123779296875</ele>
        <time>2010-03-28T12:05:08Z</time>
      </trkpt>
      <trkpt lat="46.877000732347369" lon="15.908787678927183">
        <ele>308.720458984375</ele>
        <time>2010-03-28T12:05:23Z</time>
      </trkpt>
      <trkpt lat="46.876892019063234" lon="15.908750044181943">
        <ele>309.201171875</ele>
        <time>2010-03-28T12:05:34Z</time>
      </trkpt>
      <trkpt lat="46.876734271645546" lon="15.908835455775261">
        <ele>307.278564453125</ele>
        <time>2010-03-28T12:05:54Z</time>
      </trkpt>
      <trkpt lat="46.876720357686281" lon="15.908818859606981">
        <ele>307.75927734375</ele>
        <time>2010-03-28T12:06:01Z</time>
      </trkpt>
    </trkseg>
  </trk>

</gpx>